Observation data for Endee on 07/19/2019      Previous  Date  Next       Current Mesonet Observations  Soil Data  Daily Summary Page  Observations in Plain Language
KEN1 190500Z 16014KT 30/13 A2991 RMK A01 T03000126  RH  034%=      5-min Rain = 0
KEN1 190501Z 17014KT 30/13 A2991 RMK A01 T03000127  RH  034%=      5-min Rain = 0
KEN1 190502Z 17014KT 30/13 A2991 RMK A01 T02990126  RH  035%=      5-min Rain = 0
KEN1 190503Z 17014KT 30/13 A2991 RMK A01 T02990126  RH  035%=      5-min Rain = 0
KEN1 190504Z 17014KT 30/13 A2991 RMK A01 T02990126  RH  035%=      5-min Rain = 0
KEN1 190505Z 17013KT 30/13 A2991 RMK A01 T02990126  RH  035%=      5-min Rain = 0
KEN1 190506Z 17014KT 30/13 A2991 RMK A01 T02980126  RH  035%=      5-min Rain = 0
KEN1 190507Z 17015KT 30/13 A2991 RMK A01 T02980126  RH  035%=      5-min Rain = 0
KEN1 190508Z 17013KT 30/13 A2991 RMK A01 T02980126  RH  035%=      5-min Rain = 0
KEN1 190509Z 17013KT 30/13 A2991 RMK A01 T02980126  RH  035%=      5-min Rain = 0
KEN1 190510Z 17013KT 30/13 A2991 RMK A01 T02980126  RH  035%=      5-min Rain = 0
KEN1 190511Z 17014KT 30/13 A2991 RMK A01 T02970126  RH  035%=      5-min Rain = 0
KEN1 190512Z 17015KT 30/13 A2991 RMK A01 T02970126  RH  035%=      5-min Rain = 0
KEN1 190513Z 17014KT 30/13 A2991 RMK A01 T02970126  RH  035%=      5-min Rain = 0
KEN1 190514Z 17014KT 30/13 A2991 RMK A01 T02970125  RH  035%=      5-min Rain = 0
KEN1 190515Z 17015KT 30/13 A2991 RMK A01 T02970125  RH  035%=      5-min Rain = 0
KEN1 190516Z 17015KT 30/13 A2991 RMK A01 T02970125  RH  035%=      5-min Rain = 0
KEN1 190517Z 17015KT 30/13 A2991 RMK A01 T02970125  RH  035%=      5-min Rain = 0
KEN1 190518Z 17014KT 30/13 A2991 RMK A01 T02970125  RH  035%=      5-min Rain = 0
KEN1 190519Z 17014G20KT 30/13 A2991 RMK A01 T02970125  RH  035%=      5-min Rain = 0
KEN1 190520Z 17014KT 30/12 A2991 RMK A01 T02960124  RH  035%=      5-min Rain = 0
KEN1 190521Z 17015KT 30/12 A2991 RMK A01 T02960124  RH  035%=      5-min Rain = 0
KEN1 190522Z 17016KT 30/12 A2991 RMK A01 T02970124  RH  035%=      5-min Rain = 0
KEN1 190523Z 17016KT 30/12 A2991 RMK A01 T02970124  RH  034%=      5-min Rain = 0
KEN1 190524Z 17016KT 30/12 A2991 RMK A01 T02970123  RH  034%=      5-min Rain = 0
KEN1 190525Z 17013KT 30/12 A2991 RMK A01 T02980124  RH  034%=      5-min Rain = 0
KEN1 190526Z 17014KT 30/12 A2991 RMK A01 T02980124  RH  034%=      5-min Rain = 0
KEN1 190527Z 17015KT 30/12 A2991 RMK A01 T02970123  RH  034%=      5-min Rain = 0
KEN1 190528Z 17014KT 30/12 A2991 RMK A01 T02960123  RH  034%=      5-min Rain = 0
KEN1 190529Z 17016KT 30/12 A2991 RMK A01 T02960123  RH  034%=      5-min Rain = 0
KEN1 190530Z 17015KT 30/12 A2991 RMK A01 T02960123  RH  034%=      5-min Rain = 0
KEN1 190531Z 17014KT 30/12 A2991 RMK A01 T02960122  RH  034%=      5-min Rain = 0
KEN1 190532Z 17014KT 30/12 A2991 RMK A01 T02960123  RH  034%=      5-min Rain = 0
KEN1 190533Z 18014KT 30/12 A2991 RMK A01 T02960123  RH  034%=      5-min Rain = 0
KEN1 190534Z 17014KT 30/12 A2991 RMK A01 T02960122  RH  034%=      5-min Rain = 0
KEN1 190535Z 17014KT 30/12 A2991 RMK A01 T02950122  RH  034%=      5-min Rain = 0
KEN1 190536Z 17013KT 30/12 A2991 RMK A01 T02950122  RH  034%=      5-min Rain = 0
KEN1 190537Z 17015KT 30/12 A2991 RMK A01 T02950122  RH  034%=      5-min Rain = 0
KEN1 190538Z 17015KT 30/12 A2991 RMK A01 T02950122  RH  034%=      5-min Rain = 0
KEN1 190539Z 17015KT 30/12 A2991 RMK A01 T02960121  RH  034%=      5-min Rain = 0
KEN1 190540Z 17012G17KT 30/12 A2991 RMK A01 T02960121  RH  034%=      5-min Rain = 0
KEN1 190541Z 18012KT 30/12 A2991 RMK A01 T02950122  RH  034%=      5-min Rain = 0
KEN1 190542Z 18012KT 29/12 A2991 RMK A01 T02940122  RH  035%=      5-min Rain = 0
KEN1 190543Z 17014KT 29/12 A2991 RMK A01 T02930121  RH  035%=      5-min Rain = 0
KEN1 190544Z 17012KT 29/12 A2991 RMK A01 T02930121  RH  035%=      5-min Rain = 0
KEN1 190545Z 18013G18KT 29/12 A2991 RMK A01 T02930121  RH  035%=      5-min Rain = 0
KEN1 190546Z 17015KT 29/12 A2991 RMK A01 T02930120  RH  034%=      5-min Rain = 0
KEN1 190547Z 18014KT 29/12 A2991 RMK A01 T02940121  RH  034%=      5-min Rain = 0
KEN1 190548Z 18017KT 29/12 A2991 RMK A01 T02940120  RH  034%=      5-min Rain = 0
KEN1 190549Z 17015KT 30/12 A2991 RMK A01 T02950120  RH  034%=      5-min Rain = 0
KEN1 190550Z 17015KT 30/12 A2991 RMK A01 T02960120  RH  034%=      5-min Rain = 0
KEN1 190551Z 18015KT 30/12 A2991 RMK A01 T02960120  RH  034%=      5-min Rain = 0
KEN1 190552Z 17014KT 30/12 A2991 RMK A01 T02960120  RH  034%=      5-min Rain = 0
KEN1 190553Z 18014KT 30/12 A2991 RMK A01 T02960120  RH  034%=      5-min Rain = 0
KEN1 190554Z 18016KT 30/12 A2991 RMK A01 T02960120  RH  034%=      5-min Rain = 0
KEN1 190555Z 18016KT 30/12 A2991 RMK A01 T02950119  RH  034%=      5-min Rain = 0
KEN1 190556Z 17015G20KT 30/12 A2991 RMK A01 T02960119  RH  034%=      5-min Rain = 0
KEN1 190557Z 17016KT 30/12 A2991 RMK A01 T02960119  RH  034%=      5-min Rain = 0
KEN1 190558Z 18015KT 30/12 A2991 RMK A01 T02960119  RH  034%=      5-min Rain = 0
KEN1 190559Z 18015KT 30/12 A2991 RMK A01 T02950119  RH  034%=      5-min Rain = 0
KEN1 190600Z 17016KT 30/12 A2991 RMK A01 T02950119  RH  034%=      5-min Rain = 0
KEN1 190601Z 18017KT 30/12 A2991 RMK A01 T02950119  RH  034%=      5-min Rain = 0
KEN1 190602Z 17016KT 30/12 A2991 RMK A01 T02950119  RH  034%=      5-min Rain = 0
KEN1 190603Z 17017G22KT 30/12 A2991 RMK A01 T02960119  RH  034%=      5-min Rain = 0
KEN1 190604Z 17015KT 30/12 A2991 RMK A01 T02960119  RH  033%=      5-min Rain = 0
KEN1 190605Z 18016KT 30/12 A2991 RMK A01 T02960118  RH  033%=      5-min Rain = 0
KEN1 190606Z 18014KT 30/12 A2991 RMK A01 T02960119  RH  034%=      5-min Rain = 0
KEN1 190607Z 17017G22KT 30/12 A2991 RMK A01 T02950118  RH  034%=      5-min Rain = 0
KEN1 190608Z 18013KT 29/12 A2991 RMK A01 T02940119  RH  034%=      5-min Rain = 0
KEN1 190609Z 18013KT 29/12 A2991 RMK A01 T02940119  RH  034%=      5-min Rain = 0
KEN1 190610Z 18018KT 29/12 A2991 RMK A01 T02930119  RH  034%=      5-min Rain = 0
KEN1 190611Z 18014G21KT 29/12 A2991 RMK A01 T02930118  RH  034%=      5-min Rain = 0
KEN1 190612Z 17014KT 29/12 A2991 RMK A01 T02930118  RH  034%=      5-min Rain = 0
KEN1 190613Z 17017KT 29/12 A2991 RMK A01 T02930118  RH  034%=      5-min Rain = 0
KEN1 190614Z 18015KT 29/12 A2991 RMK A01 T02920118  RH  034%=      5-min Rain = 0
KEN1 190615Z 18018KT 29/12 A2991 RMK A01 T02930118  RH  034%=      5-min Rain = 0
KEN1 190616Z 18019G27KT 29/12 A2991 RMK A01 T02930118  RH  034%=      5-min Rain = 0
KEN1 190617Z 18018KT 29/12 A2991 RMK A01 T02940118  RH  034%=      5-min Rain = 0
KEN1 190618Z 18018G23KT 29/12 A2991 RMK A01 T02940119  RH  034%=      5-min Rain = 0
KEN1 190619Z 18017KT 29/12 A2991 RMK A01 T02940119  RH  034%=      5-min Rain = 0
KEN1 190620Z 18017KT 29/12 A2991 RMK A01 T02940119  RH  034%=      5-min Rain = 0
KEN1 190621Z 18016KT 29/12 A2991 RMK A01 T02930119  RH  034%=      5-min Rain = 0
KEN1 190622Z 18018KT 29/12 A2991 RMK A01 T02920119  RH  034%=      5-min Rain = 0
KEN1 190623Z 18016G21KT 29/12 A2991 RMK A01 T02920119  RH  034%=      5-min Rain = 0
KEN1 190624Z 18016KT 29/12 A2991 RMK A01 T02920119  RH  034%=      5-min Rain = 0
KEN1 190625Z 18017KT 29/12 A2991 RMK A01 T02910119  RH  035%=      5-min Rain = 0
KEN1 190626Z 18015KT 29/12 A2991 RMK A01 T02900119  RH  035%=      5-min Rain = 0
KEN1 190627Z 18015KT 29/12 A2992 RMK A01 T02900120  RH  035%=      5-min Rain = 0
KEN1 190628Z 18016KT 29/12 A2992 RMK A01 T02900119  RH  035%=      5-min Rain = 0
KEN1 190629Z 18017KT 29/12 A2991 RMK A01 T02890120  RH  035%=      5-min Rain = 0
KEN1 190630Z 18018KT 29/12 A2992 RMK A01 T02890120  RH  035%=      5-min Rain = 0
KEN1 190631Z 18018KT 29/12 A2992 RMK A01 T02890120  RH  035%=      5-min Rain = 0
KEN1 190632Z 19017KT 29/12 A2992 RMK A01 T02890120  RH  035%=      5-min Rain = 0
KEN1 190633Z 18018KT 29/12 A2992 RMK A01 T02890121  RH  035%=      5-min Rain = 0
KEN1 190634Z 18016KT 29/12 A2992 RMK A01 T02890121  RH  035%=      5-min Rain = 0
KEN1 190635Z 18015KT 29/12 A2992 RMK A01 T02880121  RH  036%=      5-min Rain = 0
KEN1 190636Z 18016KT 29/12 A2991 RMK A01 T02880121  RH  036%=      5-min Rain = 0
KEN1 190637Z 18017KT 29/12 A2991 RMK A01 T02880121  RH  036%=      5-min Rain = 0
KEN1 190638Z 18017KT 29/12 A2992 RMK A01 T02880122  RH  036%=      5-min Rain = 0
KEN1 190639Z 18015KT 29/12 A2992 RMK A01 T02870122  RH  036%=      5-min Rain = 0
KEN1 190640Z 18017G23KT 29/12 A2991 RMK A01 T02870122  RH  036%=      5-min Rain = 0
KEN1 190641Z 18017KT 29/12 A2991 RMK A01 T02860122  RH  036%=      5-min Rain = 0
KEN1 190642Z 18017KT 29/12 A2992 RMK A01 T02860122  RH  036%=      5-min Rain = 0
KEN1 190643Z 18017KT 29/12 A2992 RMK A01 T02860122  RH  036%=      5-min Rain = 0
KEN1 190644Z 19019KT 29/12 A2992 RMK A01 T02860123  RH  036%=      5-min Rain = 0
KEN1 190645Z 19018KT 29/12 A2992 RMK A01 T02850122  RH  036%=      5-min Rain = 0
KEN1 190646Z 19018KT 29/12 A2992 RMK A01 T02860123  RH  036%=      5-min Rain = 0
KEN1 190647Z 18018KT 29/12 A2992 RMK A01 T02860123  RH  036%=      5-min Rain = 0
KEN1 190648Z 18017KT 29/12 A2992 RMK A01 T02860124  RH  037%=      5-min Rain = 0
KEN1 190649Z 19018KT 29/12 A2992 RMK A01 T02850123  RH  037%=      5-min Rain = 0
KEN1 190650Z 19016KT 29/12 A2992 RMK A01 T02850124  RH  037%=      5-min Rain = 0
KEN1 190651Z 19017G22KT 29/12 A2991 RMK A01 T02850124  RH  037%=      5-min Rain = 0
KEN1 190652Z 19017KT 29/12 A2991 RMK A01 T02850124  RH  037%=      5-min Rain = 0
KEN1 190653Z 19018G24KT 29/13 A2992 RMK A01 T02850125  RH  037%=      5-min Rain = 0
KEN1 190654Z 19019G24KT 29/13 A2991 RMK A01 T02850126  RH  037%=      5-min Rain = 0
KEN1 190655Z 18016KT 29/13 A2992 RMK A01 T02850126  RH  037%=      5-min Rain = 0
KEN1 190656Z 19021KT 29/13 A2991 RMK A01 T02860126  RH  037%=      5-min Rain = 0
KEN1 190657Z 19019KT 29/13 A2992 RMK A01 T02860127  RH  037%=      5-min Rain = 0
KEN1 190658Z 19018KT 29/13 A2992 RMK A01 T02850127  RH  038%=      5-min Rain = 0
KEN1 190659Z 19021KT 29/13 A2991 RMK A01 T02850127  RH  038%=      5-min Rain = 0
KEN1 190700Z 18021G27KT 29/13 A2991 RMK A01 T02850128  RH  038%=      5-min Rain = 0
KEN1 190701Z 19017G22KT 29/13 A2992 RMK A01 T02860128  RH  038%=      5-min Rain = 0
KEN1 190702Z 19022KT 29/13 A2991 RMK A01 T02850129  RH  038%=      5-min Rain = 0
KEN1 190703Z 19017KT 29/13 A2991 RMK A01 T02850129  RH  038%=      5-min Rain = 0
KEN1 190704Z 19018KT 28/13 A2992 RMK A01 T02840129  RH  038%=      5-min Rain = 0
KEN1 190705Z 19019G24KT 28/13 A2991 RMK A01 T02840129  RH  039%=      5-min Rain = 0
KEN1 190706Z 18020KT 28/13 A2991 RMK A01 T02840130  RH  039%=      5-min Rain = 0
KEN1 190707Z 18020KT 28/13 A2991 RMK A01 T02840130  RH  039%=      5-min Rain = 0
KEN1 190708Z 19016KT 28/13 A2992 RMK A01 T02830130  RH  039%=      5-min Rain = 0
KEN1 190709Z 19019G24KT 28/13 A2991 RMK A01 T02820131  RH  039%=      5-min Rain = 0
KEN1 190710Z 19021KT 28/13 A2991 RMK A01 T02820132  RH  039%=      5-min Rain = 0
KEN1 190711Z 19020G25KT 28/13 A2991 RMK A01 T02830132  RH  039%=      5-min Rain = 0
KEN1 190712Z 19021KT 28/13 A2991 RMK A01 T02830132  RH  039%=      5-min Rain = 0
KEN1 190713Z 18018G24KT 28/13 A2991 RMK A01 T02830132  RH  040%=      5-min Rain = 0
KEN1 190714Z 18018G24KT 28/13 A2991 RMK A01 T02830133  RH  040%=      5-min Rain = 0
KEN1 190715Z 19021G26KT 28/13 A2991 RMK A01 T02820133  RH  040%=      5-min Rain = 0
KEN1 190716Z 18021G28KT 28/13 A2991 RMK A01 T02820134  RH  040%=      5-min Rain = 0
KEN1 190717Z 19019KT 28/13 A2991 RMK A01 T02820134  RH  040%=      5-min Rain = 0
KEN1 190718Z 19020KT 28/14 A2991 RMK A01 T02820135  RH  040%=      5-min Rain = 0
KEN1 190719Z 18019G24KT 28/14 A2991 RMK A01 T02820135  RH  040%=      5-min Rain = 0
KEN1 190720Z 18019KT 28/14 A2991 RMK A01 T02810136  RH  041%=      5-min Rain = 0
KEN1 190721Z 19022G27KT 28/14 A2991 RMK A01 T02810136  RH  041%=      5-min Rain = 0
KEN1 190722Z 18023KT 28/14 A2991 RMK A01 T02810136  RH  041%=      5-min Rain = 0
KEN1 190723Z 19022KT 28/14 A2991 RMK A01 T02820136  RH  041%=      5-min Rain = 0
KEN1 190724Z 19020G25KT 28/14 A2991 RMK A01 T02820137  RH  041%=      5-min Rain = 0
KEN1 190725Z 18019KT 28/14 A2991 RMK A01 T02820137  RH  041%=      5-min Rain = 0
KEN1 190726Z 19016KT 28/14 A2992 RMK A01 T02810137  RH  041%=      5-min Rain = 0
KEN1 190727Z 18021G27KT 28/14 A2992 RMK A01 T02800137  RH  042%=      5-min Rain = 0
KEN1 190728Z 18019KT 28/14 A2992 RMK A01 T02790137  RH  042%=      5-min Rain = 0
KEN1 190729Z 19017KT 28/14 A2992 RMK A01 T02800137  RH  042%=      5-min Rain = 0
KEN1 190730Z 18015KT 28/14 A2992 RMK A01 T02790137  RH  042%=      5-min Rain = 0
KEN1 190731Z 19018G23KT 28/14 A2992 RMK A01 T02780138  RH  042%=      5-min Rain = 0
KEN1 190732Z 18018KT 28/14 A2992 RMK A01 T02770138  RH  042%=      5-min Rain = 0
KEN1 190733Z 19020KT 28/14 A2992 RMK A01 T02780138  RH  042%=      5-min Rain = 0
KEN1 190734Z 18016KT 28/14 A2992 RMK A01 T02780138  RH  042%=      5-min Rain = 0
KEN1 190735Z 18016KT 28/14 A2992 RMK A01 T02780138  RH  042%=      5-min Rain = 0
KEN1 190736Z 18017KT 28/14 A2992 RMK A01 T02770138  RH  043%=      5-min Rain = 0
KEN1 190737Z 18017KT 28/14 A2992 RMK A01 T02760139  RH  043%=      5-min Rain = 0
KEN1 190738Z 19017G22KT 28/14 A2992 RMK A01 T02760139  RH  043%=      5-min Rain = 0
KEN1 190739Z 18019KT 28/14 A2992 RMK A01 T02760139  RH  043%=      5-min Rain = 0
KEN1 190740Z 18018KT 28/14 A2992 RMK A01 T02760139  RH  043%=      5-min Rain = 0
KEN1 190741Z 18017KT 28/14 A2992 RMK A01 T02760139  RH  043%=      5-min Rain = 0
KEN1 190742Z 18017KT 28/14 A2992 RMK A01 T02760140  RH  043%=      5-min Rain = 0
KEN1 190743Z 18018KT 28/14 A2992 RMK A01 T02760140  RH  043%=      5-min Rain = 0
KEN1 190744Z 18016KT 28/14 A2992 RMK A01 T02760140  RH  043%=      5-min Rain = 0
KEN1 190745Z 18021KT 28/14 A2992 RMK A01 T02750140  RH  044%=      5-min Rain = 0
KEN1 190746Z 19018G23KT 28/14 A2992 RMK A01 T02750141  RH  044%=      5-min Rain = 0
KEN1 190747Z 18017G22KT 28/14 A2992 RMK A01 T02760141  RH  044%=      5-min Rain = 0
KEN1 190748Z 19017KT 28/14 A2992 RMK A01 T02760141  RH  044%=      5-min Rain = 0
KEN1 190749Z 18016KT 28/14 A2992 RMK A01 T02750141  RH  044%=      5-min Rain = 0
KEN1 190750Z 19018KT 27/14 A2992 RMK A01 T02740142  RH  044%=      5-min Rain = 0
KEN1 190751Z 18017KT 27/14 A2992 RMK A01 T02740142  RH  044%=      5-min Rain = 0
KEN1 190752Z 18017KT 27/14 A2992 RMK A01 T02740142  RH  044%=      5-min Rain = 0
KEN1 190753Z 19016G21KT 27/14 A2992 RMK A01 T02740142  RH  044%=      5-min Rain = 0
KEN1 190754Z 18020G25KT 27/14 A2992 RMK A01 T02730143  RH  045%=      5-min Rain = 0
KEN1 190755Z 18018G25KT 27/14 A2992 RMK A01 T02740143  RH  045%=      5-min Rain = 0
KEN1 190756Z 18015KT 27/14 A2992 RMK A01 T02740143  RH  045%=      5-min Rain = 0
KEN1 190757Z 18016G21KT 27/14 A2992 RMK A01 T02740144  RH  045%=      5-min Rain = 0
KEN1 190758Z 18018KT 27/14 A2992 RMK A01 T02730144  RH  045%=      5-min Rain = 0
KEN1 190759Z 18016KT 27/14 A2992 RMK A01 T02730144  RH  045%=      5-min Rain = 0
KEN1 190800Z 18017G23KT 27/14 A2992 RMK A01 T02720144  RH  045%=      5-min Rain = 0
KEN1 190801Z 18016G22KT 27/15 A2992 RMK A01 T02720145  RH  046%=      5-min Rain = 0
KEN1 190802Z 18017KT 27/15 A2992 RMK A01 T02720145  RH  046%=      5-min Rain = 0
KEN1 190803Z 18017KT 27/15 A2992 RMK A01 T02720145  RH  046%=      5-min Rain = 0
KEN1 190804Z 18018KT 27/15 A2992 RMK A01 T02720145  RH  046%=      5-min Rain = 0
KEN1 190805Z 18018KT 27/15 A2992 RMK A01 T02720145  RH  046%=      5-min Rain = 0
KEN1 190806Z 18016KT 27/15 A2992 RMK A01 T02710145  RH  046%=      5-min Rain = 0
KEN1 190807Z 18016KT 27/15 A2992 RMK A01 T02710145  RH  046%=      5-min Rain = 0
KEN1 190808Z 18015KT 27/15 A2992 RMK A01 T02710145  RH  046%=      5-min Rain = 0
KEN1 190809Z 18017KT 27/15 A2992 RMK A01 T02700146  RH  046%=      5-min Rain = 0
KEN1 190810Z 18017KT 27/15 A2992 RMK A01 T02700146  RH  047%=      5-min Rain = 0
KEN1 190811Z 18017KT 27/15 A2992 RMK A01 T02700146  RH  047%=      5-min Rain = 0
KEN1 190812Z 18017KT 27/15 A2992 RMK A01 T02700147  RH  047%=      5-min Rain = 0
KEN1 190813Z 18016KT 27/15 A2992 RMK A01 T02700147  RH  047%=      5-min Rain = 0
KEN1 190814Z 18015KT 27/15 A2992 RMK A01 T02700147  RH  047%=      5-min Rain = 0
KEN1 190815Z 18017KT 27/15 A2992 RMK A01 T02690147  RH  047%=      5-min Rain = 0
KEN1 190816Z 18015KT 27/15 A2992 RMK A01 T02690147  RH  047%=      5-min Rain = 0
KEN1 190817Z 18015KT 27/15 A2992 RMK A01 T02690147  RH  047%=      5-min Rain = 0
KEN1 190818Z 18015KT 27/15 A2992 RMK A01 T02680147  RH  047%=      5-min Rain = 0
KEN1 190819Z 18015KT 27/15 A2992 RMK A01 T02680148  RH  048%=      5-min Rain = 0
KEN1 190820Z 18015KT 27/15 A2992 RMK A01 T02680148  RH  048%=      5-min Rain = 0
KEN1 190821Z 18015G21KT 27/15 A2992 RMK A01 T02680148  RH  048%=      5-min Rain = 0
KEN1 190822Z 18015KT 27/15 A2992 RMK A01 T02670148  RH  048%=      5-min Rain = 0
KEN1 190823Z 18017KT 27/15 A2992 RMK A01 T02670149  RH  048%=      5-min Rain = 0
KEN1 190824Z 18016KT 27/15 A2992 RMK A01 T02670149  RH  048%=      5-min Rain = 0
KEN1 190825Z 18013KT 27/15 A2992 RMK A01 T02680149  RH  048%=      5-min Rain = 0
KEN1 190826Z 18013KT 27/15 A2992 RMK A01 T02670149  RH  048%=      5-min Rain = 0
KEN1 190827Z 18015G21KT 27/15 A2992 RMK A01 T02650149  RH  049%=      5-min Rain = 0
KEN1 190828Z 18013KT 27/15 A2992 RMK A01 T02650149  RH  049%=      5-min Rain = 0
KEN1 190829Z 18013G18KT 27/15 A2992 RMK A01 T02650149  RH  049%=      5-min Rain = 0
KEN1 190830Z 18014KT 27/15 A2993 RMK A01 T02650149  RH  049%=      5-min Rain = 0
KEN1 190831Z 18015KT 26/15 A2993 RMK A01 T02640150  RH  049%=      5-min Rain = 0
KEN1 190832Z 17013KT 26/15 A2993 RMK A01 T02640150  RH  049%=      5-min Rain = 0
KEN1 190833Z 17012KT 26/15 A2993 RMK A01 T02640150  RH  049%=      5-min Rain = 0
KEN1 190834Z 18014KT 26/15 A2993 RMK A01 T02640150  RH  049%=      5-min Rain = 0
KEN1 190835Z 18015KT 27/15 A2993 RMK A01 T02650151  RH  050%=      5-min Rain = 0
KEN1 190836Z 17013KT 27/15 A2993 RMK A01 T02650151  RH  049%=      5-min Rain = 0
KEN1 190837Z 17015KT 27/15 A2993 RMK A01 T02650151  RH  049%=      5-min Rain = 0
KEN1 190838Z 18014KT 27/15 A2993 RMK A01 T02650152  RH  050%=      5-min Rain = 0
KEN1 190839Z 18013KT 27/15 A2993 RMK A01 T02650151  RH  050%=      5-min Rain = 0
KEN1 190840Z 18014KT 26/15 A2993 RMK A01 T02640152  RH  050%=      5-min Rain = 0
KEN1 190841Z 17014KT 27/15 A2993 RMK A01 T02650152  RH  050%=      5-min Rain = 0
KEN1 190842Z 18014KT 27/15 A2993 RMK A01 T02650152  RH  050%=      5-min Rain = 0
KEN1 190843Z 17014KT 27/15 A2993 RMK A01 T02650152  RH  050%=      5-min Rain = 0
KEN1 190844Z 17013KT 27/15 A2993 RMK A01 T02650153  RH  050%=      5-min Rain = 0
KEN1 190845Z 18017KT 26/15 A2993 RMK A01 T02640153  RH  050%=      5-min Rain = 0
KEN1 190846Z 17015KT 26/15 A2993 RMK A01 T02640153  RH  050%=      5-min Rain = 0
KEN1 190847Z 17014KT 26/15 A2993 RMK A01 T02640153  RH  050%=      5-min Rain = 0
KEN1 190848Z 17015KT 27/15 A2993 RMK A01 T02650153  RH  050%=      5-min Rain = 0
KEN1 190849Z 17015KT 26/15 A2993 RMK A01 T02640154  RH  050%=      5-min Rain = 0
KEN1 190850Z 17014KT 26/15 A2993 RMK A01 T02640154  RH  050%=      5-min Rain = 0
KEN1 190851Z 17014KT 27/15 A2993 RMK A01 T02650154  RH  051%=      5-min Rain = 0
KEN1 190852Z 17014KT 26/15 A2993 RMK A01 T02640154  RH  051%=      5-min Rain = 0
KEN1 190853Z 17013KT 26/15 A2993 RMK A01 T02640154  RH  051%=      5-min Rain = 0
KEN1 190854Z 17013KT 26/15 A2993 RMK A01 T02630154  RH  051%=      5-min Rain = 0
KEN1 190855Z 17013KT 26/15 A2993 RMK A01 T02630154  RH  051%=      5-min Rain = 0
KEN1 190856Z 17013KT 26/15 A2993 RMK A01 T02630154  RH  051%=      5-min Rain = 0
KEN1 190857Z 17016KT 26/15 A2993 RMK A01 T02630154  RH  051%=      5-min Rain = 0
KEN1 190858Z 17013KT 26/15 A2993 RMK A01 T02620154  RH  051%=      5-min Rain = 0
KEN1 190859Z 17013KT 26/15 A2993 RMK A01 T02630154  RH  051%=      5-min Rain = 0
KEN1 190900Z 17016KT 26/15 A2993 RMK A01 T02620154  RH  051%=      5-min Rain = 0
KEN1 190901Z 17015KT 26/16 A2993 RMK A01 T02630155  RH  051%=      5-min Rain = 0
KEN1 190902Z 18015G20KT 26/16 A2993 RMK A01 T02630155  RH  051%=      5-min Rain = 0
KEN1 190903Z 18013G18KT 26/16 A2993 RMK A01 T02630155  RH  051%=      5-min Rain = 0
KEN1 190904Z 18015KT 26/16 A2993 RMK A01 T02630155  RH  051%=      5-min Rain = 0
KEN1 190905Z 18015KT 26/16 A2993 RMK A01 T02630155  RH  052%=      5-min Rain = 0
KEN1 190906Z 18014KT 26/16 A2993 RMK A01 T02630156  RH  052%=      5-min Rain = 0
KEN1 190907Z 18014KT 26/16 A2993 RMK A01 T02630155  RH  052%=      5-min Rain = 0
KEN1 190908Z 18012KT 26/16 A2993 RMK A01 T02630155  RH  052%=      5-min Rain = 0
KEN1 190909Z 18014KT 26/16 A2993 RMK A01 T02620155  RH  052%=      5-min Rain = 0
KEN1 190910Z 18015KT 26/16 A2993 RMK A01 T02620155  RH  052%=      5-min Rain = 0
KEN1 190911Z 17016KT 26/16 A2993 RMK A01 T02620155  RH  052%=      5-min Rain = 0
KEN1 190912Z 18013KT 26/16 A2993 RMK A01 T02620155  RH  052%=      5-min Rain = 0
KEN1 190913Z 18012KT 26/16 A2993 RMK A01 T02620155  RH  052%=      5-min Rain = 0
KEN1 190914Z 18014KT 26/16 A2993 RMK A01 T02620156  RH  052%=      5-min Rain = 0
KEN1 190915Z 18013KT 26/16 A2993 RMK A01 T02620156  RH  052%=      5-min Rain = 0
KEN1 190916Z 18012G18KT 26/16 A2993 RMK A01 T02620156  RH  052%=      5-min Rain = 0
KEN1 190917Z 18014KT 26/16 A2993 RMK A01 T02610156  RH  052%=      5-min Rain = 0
KEN1 190918Z 18013KT 26/16 A2993 RMK A01 T02610156  RH  052%=      5-min Rain = 0
KEN1 190919Z 18013G18KT 26/16 A2993 RMK A01 T02610156  RH  052%=      5-min Rain = 0
KEN1 190920Z 18016KT 26/16 A2993 RMK A01 T02610156  RH  052%=      5-min Rain = 0
KEN1 190921Z 17014KT 26/16 A2993 RMK A01 T02620156  RH  052%=      5-min Rain = 0
KEN1 190922Z 18012KT 26/16 A2993 RMK A01 T02620156  RH  052%=      5-min Rain = 0
KEN1 190923Z 17013KT 26/16 A2993 RMK A01 T02620156  RH  052%=      5-min Rain = 0
KEN1 190924Z 18014KT 26/16 A2993 RMK A01 T02610156  RH  052%=      5-min Rain = 0
KEN1 190925Z 18014KT 26/16 A2993 RMK A01 T02610156  RH  052%=      5-min Rain = 0
KEN1 190926Z 18012KT 26/16 A2993 RMK A01 T02610156  RH  052%=      5-min Rain = 0
KEN1 190927Z 18015KT 26/16 A2993 RMK A01 T02600156  RH  052%=      5-min Rain = 0
KEN1 190928Z 18016KT 26/16 A2992 RMK A01 T02600156  RH  053%=      5-min Rain = 0
KEN1 190929Z 18013KT 26/16 A2993 RMK A01 T02610156  RH  052%=      5-min Rain = 0
KEN1 190930Z 17014KT 26/16 A2993 RMK A01 T02610156  RH  052%=      5-min Rain = 0
KEN1 190931Z 18015G20KT 26/16 A2992 RMK A01 T02610156  RH  052%=      5-min Rain = 0
KEN1 190932Z 18015KT 26/16 A2992 RMK A01 T02600156  RH  053%=      5-min Rain = 0
KEN1 190933Z 17014KT 26/16 A2992 RMK A01 T02600156  RH  052%=      5-min Rain = 0
KEN1 190934Z 18015KT 26/16 A2992 RMK A01 T02600156  RH  053%=      5-min Rain = 0
KEN1 190935Z 18018KT 26/16 A2992 RMK A01 T02600156  RH  053%=      5-min Rain = 0
KEN1 190936Z 17014KT 26/16 A2992 RMK A01 T02610156  RH  052%=      5-min Rain = 0
KEN1 190937Z 18016KT 26/16 A2992 RMK A01 T02610156  RH  052%=      5-min Rain = 0
KEN1 190938Z 17015KT 26/16 A2992 RMK A01 T02610156  RH  052%=      5-min Rain = 0
KEN1 190939Z 17016G21KT 26/16 A2992 RMK A01 T02600156  RH  053%=      5-min Rain = 0
KEN1 190940Z 17016KT 26/16 A2992 RMK A01 T02600156  RH  053%=      5-min Rain = 0
KEN1 190941Z 17015G20KT 26/16 A2992 RMK A01 T02600156  RH  053%=      5-min Rain = 0
KEN1 190942Z 17016KT 26/16 A2992 RMK A01 T02600156  RH  053%=      5-min Rain = 0
KEN1 190943Z 18017KT 26/16 A2992 RMK A01 T02600156  RH  053%=      5-min Rain = 0
KEN1 190944Z 18015KT 26/16 A2992 RMK A01 T02590156  RH  053%=      5-min Rain = 0
KEN1 190945Z 18012KT 26/16 A2992 RMK A01 T02600156  RH  053%=      5-min Rain = 0
KEN1 190946Z 18014KT 26/16 A2992 RMK A01 T02580156  RH  053%=      5-min Rain = 0
KEN1 190947Z 18013KT 26/16 A2992 RMK A01 T02580156  RH  053%=      5-min Rain = 0
KEN1 190948Z 18016G21KT 26/16 A2992 RMK A01 T02580156  RH  053%=      5-min Rain = 0
KEN1 190949Z 17013KT 26/16 A2992 RMK A01 T02580156  RH  053%=      5-min Rain = 0
KEN1 190950Z 17014KT 26/16 A2992 RMK A01 T02580156  RH  053%=      5-min Rain = 0
KEN1 190951Z 17014KT 26/16 A2992 RMK A01 T02580156  RH  053%=      5-min Rain = 0
KEN1 190952Z 17014KT 26/16 A2992 RMK A01 T02580156  RH  053%=      5-min Rain = 0
KEN1 190953Z 17014KT 26/16 A2992 RMK A01 T02580156  RH  053%=      5-min Rain = 0
KEN1 190954Z 17014KT 26/16 A2992 RMK A01 T02580156  RH  053%=      5-min Rain = 0
KEN1 190955Z 17016KT 26/16 A2992 RMK A01 T02570156  RH  054%=      5-min Rain = 0
KEN1 190956Z 18016KT 26/16 A2992 RMK A01 T02570156  RH  054%=      5-min Rain = 0
KEN1 190957Z 18016KT 26/16 A2992 RMK A01 T02570155  RH  053%=      5-min Rain = 0
KEN1 190958Z 18016KT 26/16 A2992 RMK A01 T02570156  RH  053%=      5-min Rain = 0
KEN1 190959Z 17014KT 26/16 A2992 RMK A01 T02580156  RH  053%=      5-min Rain = 0
KEN1 191000Z 17017KT 26/16 A2992 RMK A01 T02580156  RH  053%=      5-min Rain = 0
KEN1 191001Z 17016G21KT 26/16 A2992 RMK A01 T02580156  RH  053%=      5-min Rain = 0
KEN1 191002Z 17017KT 26/16 A2992 RMK A01 T02570156  RH  053%=      5-min Rain = 0
KEN1 191003Z 17017KT 26/16 A2992 RMK A01 T02570156  RH  053%=      5-min Rain = 0
KEN1 191004Z 17017KT 26/16 A2992 RMK A01 T02570156  RH  053%=      5-min Rain = 0
KEN1 191005Z 17015KT 26/16 A2992 RMK A01 T02580156  RH  053%=      5-min Rain = 0
KEN1 191006Z 17017G22KT 26/16 A2992 RMK A01 T02570156  RH  054%=      5-min Rain = 0
KEN1 191007Z 17016KT 26/16 A2992 RMK A01 T02570156  RH  054%=      5-min Rain = 0
KEN1 191008Z 17015KT 26/16 A2992 RMK A01 T02560156  RH  054%=      5-min Rain = 0
KEN1 191009Z 17013KT 26/16 A2992 RMK A01 T02560156  RH  054%=      5-min Rain = 0
KEN1 191010Z 17015KT 26/16 A2992 RMK A01 T02550156  RH  054%=      5-min Rain = 0
KEN1 191011Z 17015KT 25/16 A2992 RMK A01 T02540156  RH  054%=      5-min Rain = 0
KEN1 191012Z 16014KT 26/16 A2992 RMK A01 T02550156  RH  054%=      5-min Rain = 0
KEN1 191013Z 17014KT 25/16 A2992 RMK A01 T02540156  RH  054%=      5-min Rain = 0
KEN1 191014Z 17015KT 25/16 A2992 RMK A01 T02540156  RH  055%=      5-min Rain = 0
KEN1 191015Z 17016KT 25/16 A2992 RMK A01 T02540156  RH  055%=      5-min Rain = 0
KEN1 191016Z 17013KT 25/16 A2992 RMK A01 T02540156  RH  055%=      5-min Rain = 0
KEN1 191017Z 17014KT 25/16 A2992 RMK A01 T02540156  RH  055%=      5-min Rain = 0
KEN1 191018Z 18013KT 25/16 A2992 RMK A01 T02530156  RH  055%=      5-min Rain = 0
KEN1 191019Z 17014G19KT 25/16 A2992 RMK A01 T02530156  RH  055%=      5-min Rain = 0
KEN1 191020Z 17015KT 25/16 A2992 RMK A01 T02530156  RH  055%=      5-min Rain = 0
KEN1 191021Z 17015KT 25/16 A2992 RMK A01 T02530156  RH  055%=      5-min Rain = 0
KEN1 191022Z 17014KT 25/16 A2992 RMK A01 T02530156  RH  055%=      5-min Rain = 0
KEN1 191023Z 17016KT 25/16 A2992 RMK A01 T02530156  RH  055%=      5-min Rain = 0
KEN1 191024Z 18014KT 25/16 A2992 RMK A01 T02530156  RH  055%=      5-min Rain = 0
KEN1 191025Z 18012KT 25/16 A2992 RMK A01 T02530156  RH  055%=      5-min Rain = 0
KEN1 191026Z 17014KT 25/16 A2992 RMK A01 T02520156  RH  055%=      5-min Rain = 0
KEN1 191027Z 17013KT 25/16 A2992 RMK A01 T02520156  RH  055%=      5-min Rain = 0
KEN1 191028Z 17013KT 25/16 A2992 RMK A01 T02510156  RH  055%=      5-min Rain = 0
KEN1 191029Z 17013G19KT 25/16 A2992 RMK A01 T02510156  RH  055%=      5-min Rain = 0
KEN1 191030Z 17014KT 25/16 A2992 RMK A01 T02510156  RH  056%=      5-min Rain = 0
KEN1 191031Z 17016KT 25/16 A2992 RMK A01 T02510155  RH  055%=      5-min Rain = 0
KEN1 191032Z 17014KT 25/16 A2992 RMK A01 T02510155  RH  055%=      5-min Rain = 0
KEN1 191033Z 17015KT 25/16 A2992 RMK A01 T02520156  RH  055%=      5-min Rain = 0
KEN1 191034Z 17015KT 25/16 A2992 RMK A01 T02520156  RH  055%=      5-min Rain = 0
KEN1 191035Z 17016KT 25/16 A2992 RMK A01 T02520156  RH  055%=      5-min Rain = 0
KEN1 191036Z 17014KT 25/16 A2992 RMK A01 T02520155  RH  055%=      5-min Rain = 0
KEN1 191037Z 17015KT 25/16 A2992 RMK A01 T02510155  RH  055%=      5-min Rain = 0
KEN1 191038Z 18015KT 25/16 A2992 RMK A01 T02510155  RH  055%=      5-min Rain = 0
KEN1 191039Z 18018G24KT 25/16 A2992 RMK A01 T02510155  RH  055%=      5-min Rain = 0
KEN1 191040Z 17015KT 25/16 A2992 RMK A01 T02520155  RH  055%=      5-min Rain = 0
KEN1 191041Z 17013G18KT 25/16 A2992 RMK A01 T02520155  RH  055%=      5-min Rain = 0
KEN1 191042Z 17013KT 25/16 A2992 RMK A01 T02520155  RH  055%=      5-min Rain = 0
KEN1 191043Z 17015KT 25/16 A2992 RMK A01 T02500155  RH  055%=      5-min Rain = 0
KEN1 191044Z 17014KT 25/16 A2992 RMK A01 T02500155  RH  055%=      5-min Rain = 0
KEN1 191045Z 17015KT 25/16 A2992 RMK A01 T02500155  RH  055%=      5-min Rain = 0
KEN1 191046Z 17014G19KT 25/16 A2992 RMK A01 T02500155  RH  055%=      5-min Rain = 0
KEN1 191047Z 17016KT 25/16 A2992 RMK A01 T02500155  RH  055%=      5-min Rain = 0
KEN1 191048Z 18016KT 25/15 A2992 RMK A01 T02500154  RH  055%=      5-min Rain = 0
KEN1 191049Z 17016KT 25/16 A2992 RMK A01 T02500155  RH  055%=      5-min Rain = 0
KEN1 191050Z 17014KT 25/15 A2992 RMK A01 T02500154  RH  055%=      5-min Rain = 0
KEN1 191051Z 17013KT 25/16 A2992 RMK A01 T02500155  RH  055%=      5-min Rain = 0
KEN1 191052Z 17015KT 25/16 A2992 RMK A01 T02490155  RH  056%=      5-min Rain = 0
KEN1 191053Z 17014KT 25/16 A2992 RMK A01 T02490155  RH  056%=      5-min Rain = 0
KEN1 191054Z 17014KT 25/16 A2992 RMK A01 T02490155  RH  056%=      5-min Rain = 0
KEN1 191055Z 17014KT 25/16 A2992 RMK A01 T02480155  RH  056%=      5-min Rain = 0
KEN1 191056Z 18014KT 25/16 A2992 RMK A01 T02480155  RH  056%=      5-min Rain = 0
KEN1 191057Z 17013KT 25/16 A2992 RMK A01 T02480155  RH  056%=      5-min Rain = 0
KEN1 191058Z 17015KT 25/16 A2992 RMK A01 T02480155  RH  056%=      5-min Rain = 0
KEN1 191059Z 17016KT 25/16 A2992 RMK A01 T02480155  RH  056%=      5-min Rain = 0
KEN1 191100Z 17015KT 25/15 A2992 RMK A01 T02480154  RH  056%=      5-min Rain = 0
KEN1 191101Z 18015KT 25/16 A2992 RMK A01 T02490155  RH  056%=      5-min Rain = 0
KEN1 191102Z 17014KT 25/16 A2992 RMK A01 T02480155  RH  056%=      5-min Rain = 0
KEN1 191103Z 18013KT 25/16 A2993 RMK A01 T02480155  RH  056%=      5-min Rain = 0
KEN1 191104Z 17013KT 25/16 A2993 RMK A01 T02470155  RH  056%=      5-min Rain = 0
KEN1 191105Z 17013KT 25/16 A2993 RMK A01 T02470155  RH  057%=      5-min Rain = 0
KEN1 191106Z 17014KT 25/16 A2993 RMK A01 T02460155  RH  057%=      5-min Rain = 0
KEN1 191107Z 17012KT 25/15 A2993 RMK A01 T02460154  RH  057%=      5-min Rain = 0
KEN1 191108Z 17014KT 25/16 A2993 RMK A01 T02460155  RH  057%=      5-min Rain = 0
KEN1 191109Z 18013KT 25/15 A2993 RMK A01 T02460154  RH  057%=      5-min Rain = 0
KEN1 191110Z 18013KT 25/15 A2993 RMK A01 T02460154  RH  057%=      5-min Rain = 0
KEN1 191111Z 17014KT 25/15 A2993 RMK A01 T02460154  RH  057%=      5-min Rain = 0
KEN1 191112Z 18012KT 25/15 A2993 RMK A01 T02460154  RH  057%=      5-min Rain = 0
KEN1 191113Z 18014KT 25/15 A2993 RMK A01 T02460154  RH  057%=      5-min Rain = 0
KEN1 191114Z 17014KT 25/15 A2993 RMK A01 T02460154  RH  057%=      5-min Rain = 0
KEN1 191115Z 17014KT 25/15 A2993 RMK A01 T02460154  RH  056%=      5-min Rain = 0
KEN1 191116Z 18013KT 25/15 A2993 RMK A01 T02460154  RH  056%=      5-min Rain = 0
KEN1 191117Z 17014KT 25/15 A2993 RMK A01 T02460154  RH  057%=      5-min Rain = 0
KEN1 191118Z 17015KT 25/15 A2993 RMK A01 T02450154  RH  057%=      5-min Rain = 0
KEN1 191119Z 17014KT 25/15 A2993 RMK A01 T02450153  RH  057%=      5-min Rain = 0
KEN1 191120Z 18014KT 25/15 A2993 RMK A01 T02450153  RH  057%=      5-min Rain = 0
KEN1 191121Z 18013KT 25/15 A2993 RMK A01 T02450153  RH  057%=      5-min Rain = 0
KEN1 191122Z 18014KT 25/15 A2993 RMK A01 T02450154  RH  057%=      5-min Rain = 0
KEN1 191123Z 18013KT 25/15 A2993 RMK A01 T02450153  RH  057%=      5-min Rain = 0
KEN1 191124Z 18013KT 24/15 A2993 RMK A01 T02440153  RH  057%=      5-min Rain = 0
KEN1 191125Z 18014KT 24/15 A2993 RMK A01 T02440153  RH  057%=      5-min Rain = 0
KEN1 191126Z 18014KT 24/15 A2993 RMK A01 T02440153  RH  057%=      5-min Rain = 0
KEN1 191127Z 18014KT 24/15 A2993 RMK A01 T02440153  RH  057%=      5-min Rain = 0
KEN1 191128Z 18015KT 24/15 A2993 RMK A01 T02440153  RH  057%=      5-min Rain = 0
KEN1 191129Z 18016KT 24/15 A2993 RMK A01 T02440153  RH  057%=      5-min Rain = 0
KEN1 191130Z 18015KT 25/15 A2993 RMK A01 T02450153  RH  057%=      5-min Rain = 0
KEN1 191131Z 18015KT 25/15 A2993 RMK A01 T02450153  RH  056%=      5-min Rain = 0
KEN1 191132Z 18014KT 25/15 A2993 RMK A01 T02450153  RH  057%=      5-min Rain = 0
KEN1 191133Z 18015KT 25/15 A2993 RMK A01 T02450153  RH  057%=      5-min Rain = 0
KEN1 191134Z 18014KT 24/15 A2993 RMK A01 T02440153  RH  057%=      5-min Rain = 0
KEN1 191135Z 18018KT 24/15 A2993 RMK A01 T02440153  RH  057%=      5-min Rain = 0
KEN1 191136Z 18016KT 24/15 A2993 RMK A01 T02440153  RH  057%=      5-min Rain = 0
KEN1 191137Z 18016KT 24/15 A2993 RMK A01 T02440152  RH  057%=      5-min Rain = 0
KEN1 191138Z 18014KT 24/15 A2993 RMK A01 T02440153  RH  057%=      5-min Rain = 0
KEN1 191139Z 18016KT 24/15 A2993 RMK A01 T02430152  RH  057%=      5-min Rain = 0
KEN1 191140Z 18016KT 24/15 A2993 RMK A01 T02430153  RH  057%=      5-min Rain = 0
KEN1 191141Z 18015KT 24/15 A2993 RMK A01 T02430153  RH  057%=      5-min Rain = 0
KEN1 191142Z 18015KT 24/15 A2993 RMK A01 T02430152  RH  057%=      5-min Rain = 0
KEN1 191143Z 18014KT 24/15 A2993 RMK A01 T02420152  RH  057%=      5-min Rain = 0
KEN1 191144Z 18014KT 24/15 A2993 RMK A01 T02420152  RH  057%=      5-min Rain = 0
KEN1 191145Z 18015KT 24/15 A2993 RMK A01 T02410152  RH  058%=      5-min Rain = 0
KEN1 191146Z 18018KT 24/15 A2993 RMK A01 T02410152  RH  058%=      5-min Rain = 0
KEN1 191147Z 18016KT 24/15 A2993 RMK A01 T02420152  RH  057%=      5-min Rain = 0
KEN1 191148Z 17014KT 24/15 A2993 RMK A01 T02430152  RH  057%=      5-min Rain = 0
KEN1 191149Z 18013KT 24/15 A2993 RMK A01 T02420152  RH  057%=      5-min Rain = 0
KEN1 191150Z 18013KT 24/15 A2993 RMK A01 T02400152  RH  058%=      5-min Rain = 0
KEN1 191151Z 18015KT 24/15 A2993 RMK A01 T02380152  RH  058%=      5-min Rain = 0
KEN1 191152Z 18014KT 24/15 A2993 RMK A01 T02380151  RH  058%=      5-min Rain = 0
KEN1 191153Z 18016KT 24/15 A2993 RMK A01 T02390152  RH  058%=      5-min Rain = 0
KEN1 191154Z 18016KT 24/15 A2993 RMK A01 T02400152  RH  058%=      5-min Rain = 0
KEN1 191155Z 18014KT 24/15 A2993 RMK A01 T02400152  RH  058%=      5-min Rain = 0
KEN1 191156Z 18016KT 24/15 A2993 RMK A01 T02400151  RH  058%=      5-min Rain = 0
KEN1 191157Z 18015KT 24/15 A2993 RMK A01 T02390151  RH  058%=      5-min Rain = 0
KEN1 191158Z 18016KT 24/15 A2993 RMK A01 T02390151  RH  058%=      5-min Rain = 0
KEN1 191159Z 18016KT 24/15 A2993 RMK A01 T02390151  RH  058%=      5-min Rain = 0
KEN1 191200Z 18014KT 24/15 A2993 RMK A01 T02390151  RH  058%=      5-min Rain = 0
KEN1 191201Z 18017KT 24/15 A2993 RMK A01 T02380151  RH  058%=      5-min Rain = 0
KEN1 191202Z 18015KT 24/15 A2993 RMK A01 T02380151  RH  058%=      5-min Rain = 0
KEN1 191203Z 18016KT 24/15 A2993 RMK A01 T02380151  RH  058%=      5-min Rain = 0
KEN1 191204Z 18014KT 24/15 A2993 RMK A01 T02380151  RH  058%=      5-min Rain = 0
KEN1 191205Z 18014KT 24/15 A2993 RMK A01 T02380151  RH  058%=      5-min Rain = 0
KEN1 191206Z 18015KT 24/15 A2993 RMK A01 T02380151  RH  058%=      5-min Rain = 0
KEN1 191207Z 18013KT 24/15 A2993 RMK A01 T02380151  RH  058%=      5-min Rain = 0
KEN1 191208Z 18015KT 24/15 A2993 RMK A01 T02380151  RH  058%=      5-min Rain = 0
KEN1 191209Z 18016KT 24/15 A2993 RMK A01 T02380151  RH  058%=      5-min Rain = 0
KEN1 191210Z 17014KT 24/15 A2993 RMK A01 T02380151  RH  058%=      5-min Rain = 0
KEN1 191211Z 18015KT 24/15 A2993 RMK A01 T02380151  RH  058%=      5-min Rain = 0
KEN1 191212Z 18014KT 24/15 A2993 RMK A01 T02380151  RH  058%=      5-min Rain = 0
KEN1 191213Z 18012KT 24/15 A2993 RMK A01 T02380151  RH  058%=      5-min Rain = 0
KEN1 191214Z 18014KT 24/15 A2994 RMK A01 T02370151  RH  058%=      5-min Rain = 0
KEN1 191215Z 18014KT 24/15 A2994 RMK A01 T02370150  RH  058%=      5-min Rain = 0
KEN1 191216Z 18014KT 24/15 A2994 RMK A01 T02380151  RH  058%=      5-min Rain = 0
KEN1 191217Z 17013KT 24/15 A2994 RMK A01 T02380151  RH  058%=      5-min Rain = 0
KEN1 191218Z 18013KT 24/15 A2994 RMK A01 T02380151  RH  058%=      5-min Rain = 0
KEN1 191219Z 18015KT 24/15 A2994 RMK A01 T02380151  RH  058%=      5-min Rain = 0
KEN1 191220Z 18013KT 24/15 A2994 RMK A01 T02380150  RH  058%=      5-min Rain = 0
KEN1 191221Z 18016KT 24/15 A2994 RMK A01 T02380150  RH  058%=      5-min Rain = 0
KEN1 191222Z 18014KT 24/15 A2994 RMK A01 T02390151  RH  058%=      5-min Rain = 0
KEN1 191223Z 18013KT 24/15 A2994 RMK A01 T02400151  RH  057%=      5-min Rain = 0
KEN1 191224Z 18015KT 24/15 A2994 RMK A01 T02400151  RH  057%=      5-min Rain = 0
KEN1 191225Z 18015KT 24/15 A2993 RMK A01 T02400151  RH  058%=      5-min Rain = 0
KEN1 191226Z 18017KT 24/15 A2993 RMK A01 T02400151  RH  057%=      5-min Rain = 0
KEN1 191227Z 18016KT 24/15 A2993 RMK A01 T02410151  RH  057%=      5-min Rain = 0
KEN1 191228Z 18016KT 24/15 A2993 RMK A01 T02410151  RH  057%=      5-min Rain = 0
KEN1 191229Z 18017KT 24/15 A2993 RMK A01 T02410150  RH  057%=      5-min Rain = 0
KEN1 191230Z 18016KT 24/15 A2993 RMK A01 T02410151  RH  057%=      5-min Rain = 0
KEN1 191231Z 18016KT 24/15 A2993 RMK A01 T02410151  RH  057%=      5-min Rain = 0
KEN1 191232Z 18017KT 24/15 A2993 RMK A01 T02410150  RH  057%=      5-min Rain = 0
KEN1 191233Z 18014KT 24/15 A2993 RMK A01 T02420150  RH  057%=      5-min Rain = 0
KEN1 191234Z 18016KT 24/15 A2993 RMK A01 T02410151  RH  057%=      5-min Rain = 0
KEN1 191235Z 18016KT 24/15 A2993 RMK A01 T02420151  RH  057%=      5-min Rain = 0
KEN1 191236Z 18016G21KT 24/15 A2993 RMK A01 T02410150  RH  057%=      5-min Rain = 0
KEN1 191237Z 18019KT 24/15 A2993 RMK A01 T02410150  RH  057%=      5-min Rain = 0
KEN1 191238Z 18016KT 24/15 A2993 RMK A01 T02420150  RH  056%=      5-min Rain = 0
KEN1 191239Z 18017KT 24/15 A2993 RMK A01 T02430150  RH  056%=      5-min Rain = 0
KEN1 191240Z 18019KT 24/15 A2993 RMK A01 T02430150  RH  056%=      5-min Rain = 0
KEN1 191241Z 18016KT 24/15 A2993 RMK A01 T02440150  RH  056%=      5-min Rain = 0
KEN1 191242Z 18018KT 24/15 A2993 RMK A01 T02440150  RH  056%=      5-min Rain = 0
KEN1 191243Z 18017KT 24/15 A2993 RMK A01 T02440151  RH  056%=      5-min Rain = 0
KEN1 191244Z 18016KT 24/15 A2993 RMK A01 T02440151  RH  056%=      5-min Rain = 0
KEN1 191245Z 18019KT 24/15 A2993 RMK A01 T02440150  RH  056%=      5-min Rain = 0
KEN1 191246Z 18018KT 24/15 A2993 RMK A01 T02440150  RH  056%=      5-min Rain = 0
KEN1 191247Z 18016KT 25/15 A2993 RMK A01 T02450150  RH  056%=      5-min Rain = 0
KEN1 191248Z 18015KT 25/15 A2993 RMK A01 T02450151  RH  056%=      5-min Rain = 0
KEN1 191249Z 18017KT 25/15 A2993 RMK A01 T02450151  RH  056%=      5-min Rain = 0
KEN1 191250Z 18017KT 25/15 A2993 RMK A01 T02450150  RH  056%=      5-min Rain = 0
KEN1 191251Z 18018KT 25/15 A2993 RMK A01 T02450150  RH  056%=      5-min Rain = 0
KEN1 191252Z 18016KT 25/15 A2993 RMK A01 T02450150  RH  055%=      5-min Rain = 0
KEN1 191253Z 18015KT 25/15 A2993 RMK A01 T02460150  RH  055%=      5-min Rain = 0
KEN1 191254Z 18015KT 25/15 A2993 RMK A01 T02460151  RH  055%=      5-min Rain = 0
KEN1 191255Z 18013KT 25/15 A2993 RMK A01 T02460151  RH  055%=      5-min Rain = 0
KEN1 191256Z 18014KT 25/15 A2993 RMK A01 T02470151  RH  055%=      5-min Rain = 0
KEN1 191257Z 18016KT 25/15 A2993 RMK A01 T02460150  RH  055%=      5-min Rain = 0
KEN1 191258Z 18014KT 25/15 A2993 RMK A01 T02470150  RH  055%=      5-min Rain = 0
KEN1 191259Z 18016KT 25/15 A2993 RMK A01 T02470150  RH  055%=      5-min Rain = 0
KEN1 191300Z 18014KT 25/15 A2993 RMK A01 T02480150  RH  054%=      5-min Rain = 0
KEN1 191301Z 18013KT 25/15 A2994 RMK A01 T02480150  RH  054%=      5-min Rain = 0
KEN1 191302Z 18012KT 25/15 A2994 RMK A01 T02490151  RH  054%=      5-min Rain = 0
KEN1 191303Z 18013KT 25/15 A2994 RMK A01 T02490151  RH  054%=      5-min Rain = 0
KEN1 191304Z 18015KT 25/15 A2994 RMK A01 T02500150  RH  054%=      5-min Rain = 0
KEN1 191305Z 19011KT 25/15 A2994 RMK A01 T02510150  RH  054%=      5-min Rain = 0
KEN1 191306Z 18011KT 25/15 A2994 RMK A01 T02510150  RH  054%=      5-min Rain = 0
KEN1 191307Z 19010KT 25/15 A2994 RMK A01 T02520150  RH  053%=      5-min Rain = 0
KEN1 191308Z 18012KT 25/15 A2994 RMK A01 T02530150  RH  053%=      5-min Rain = 0
KEN1 191309Z 19011KT 25/15 A2994 RMK A01 T02540150  RH  052%=      5-min Rain = 0
KEN1 191310Z 18013KT 26/15 A2994 RMK A01 T02550150  RH  052%=      5-min Rain = 0
KEN1 191311Z 19010KT 26/15 A2994 RMK A01 T02550150  RH  052%=      5-min Rain = 0
KEN1 191312Z 19012KT 26/15 A2994 RMK A01 T02550150  RH  052%=      5-min Rain = 0
KEN1 191313Z 19013KT 26/15 A2994 RMK A01 T02550150  RH  052%=      5-min Rain = 0
KEN1 191314Z 18014KT 26/15 A2994 RMK A01 T02550150  RH  052%=      5-min Rain = 0
KEN1 191315Z 19013KT 26/15 A2994 RMK A01 T02560150  RH  052%=      5-min Rain = 0
KEN1 191316Z 19010KT 26/15 A2994 RMK A01 T02550150  RH  052%=      5-min Rain = 0
KEN1 191317Z 18009G14KT 26/15 A2995 RMK A01 T02560150  RH  052%=      5-min Rain = 0
KEN1 191318Z 18012KT 26/15 A2995 RMK A01 T02570150  RH  052%=      5-min Rain = 0
KEN1 191319Z 18010KT 26/15 A2995 RMK A01 T02580150  RH  051%=      5-min Rain = 0
KEN1 191320Z 18010KT 26/15 A2995 RMK A01 T02580150  RH  051%=      5-min Rain = 0
KEN1 191321Z 18010KT 26/15 A2995 RMK A01 T02590150  RH  051%=      5-min Rain = 0
KEN1 191322Z 19011G16KT 26/15 A2995 RMK A01 T02590150  RH  051%=      5-min Rain = 0
KEN1 191323Z 18010KT 26/15 A2995 RMK A01 T02600150  RH  051%=      5-min Rain = 0
KEN1 191324Z 18009KT 26/15 A2995 RMK A01 T02600150  RH  051%=      5-min Rain = 0
KEN1 191325Z 18012G17KT 26/15 A2995 RMK A01 T02610150  RH  050%=      5-min Rain = 0
KEN1 191326Z 19011KT 26/15 A2995 RMK A01 T02610150  RH  050%=      5-min Rain = 0
KEN1 191327Z 19010KT 26/15 A2995 RMK A01 T02610150  RH  050%=      5-min Rain = 0
KEN1 191328Z 19008KT 26/15 A2995 RMK A01 T02620151  RH  050%=      5-min Rain = 0
KEN1 191329Z 18008KT 26/15 A2995 RMK A01 T02630151  RH  050%=      5-min Rain = 0
KEN1 191330Z 19010KT 26/15 A2995 RMK A01 T02640151  RH  050%=      5-min Rain = 0
KEN1 191331Z 18012KT 26/15 A2995 RMK A01 T02640150  RH  049%=      5-min Rain = 0
KEN1 191332Z 19011KT 26/15 A2995 RMK A01 T02640150  RH  049%=      5-min Rain = 0
KEN1 191333Z 19010KT 26/15 A2995 RMK A01 T02640150  RH  050%=      5-min Rain = 0
KEN1 191334Z 18011KT 26/15 A2995 RMK A01 T02640150  RH  049%=      5-min Rain = 0
KEN1 191335Z 18008KT 26/15 A2995 RMK A01 T02640150  RH  049%=      5-min Rain = 0
KEN1 191336Z 19008KT 27/15 A2995 RMK A01 T02650150  RH  049%=      5-min Rain = 0
KEN1 191337Z 18008KT 27/15 A2995 RMK A01 T02660150  RH  049%=      5-min Rain = 0
KEN1 191338Z 18007KT 27/15 A2996 RMK A01 T02670151  RH  049%=      5-min Rain = 0
KEN1 191339Z 17009KT 27/15 A2996 RMK A01 T02680151  RH  048%=      5-min Rain = 0
KEN1 191340Z 19010KT 27/15 A2996 RMK A01 T02690150  RH  048%=      5-min Rain = 0
KEN1 191341Z 19008KT 27/15 A2996 RMK A01 T02680150  RH  048%=      5-min Rain = 0
KEN1 191342Z 19010KT 27/15 A2996 RMK A01 T02680150  RH  049%=      5-min Rain = 0
KEN1 191343Z 18008KT 27/15 A2996 RMK A01 T02670150  RH  048%=      5-min Rain = 0
KEN1 191344Z 18007KT 27/15 A2996 RMK A01 T02670150  RH  049%=      5-min Rain = 0
KEN1 191345Z 19007KT 27/15 A2996 RMK A01 T02680150  RH  048%=      5-min Rain = 0
KEN1 191346Z 20007KT 27/15 A2996 RMK A01 T02690150  RH  048%=      5-min Rain = 0
KEN1 191347Z 19006KT 27/15 A2996 RMK A01 T02690150  RH  048%=      5-min Rain = 0
KEN1 191348Z 19006KT 27/15 A2996 RMK A01 T02690150  RH  048%=      5-min Rain = 0
KEN1 191349Z 19007KT 27/15 A2996 RMK A01 T02700151  RH  048%=      5-min Rain = 0
KEN1 191350Z 19007KT 27/15 A2996 RMK A01 T02700150  RH  048%=      5-min Rain = 0
KEN1 191351Z 21006KT 27/15 A2996 RMK A01 T02700150  RH  048%=      5-min Rain = 0
KEN1 191352Z 19007KT 27/15 A2996 RMK A01 T02700151  RH  048%=      5-min Rain = 0
KEN1 191353Z 18010KT 27/15 A2996 RMK A01 T02700150  RH  048%=      5-min Rain = 0
KEN1 191354Z 19008KT 27/15 A2996 RMK A01 T02710149  RH  047%=      5-min Rain = 0
KEN1 191355Z 18008KT 27/15 A2996 RMK A01 T02700150  RH  048%=      5-min Rain = 0
KEN1 191356Z 19008KT 27/15 A2996 RMK A01 T02710151  RH  048%=      5-min Rain = 0
KEN1 191357Z 20008KT 27/15 A2996 RMK A01 T02730150  RH  047%=      5-min Rain = 0
KEN1 191358Z 19007KT 27/15 A2996 RMK A01 T02730150  RH  047%=      5-min Rain = 0
KEN1 191359Z 17006KT 27/15 A2996 RMK A01 T02730151  RH  047%=      5-min Rain = 0
KEN1 191400Z 18006KT 27/15 A2996 RMK A01 T02740151  RH  047%=      5-min Rain = 0
KEN1 191401Z 20006KT 28/15 A2996 RMK A01 T02760150  RH  046%=      5-min Rain = 0
KEN1 191402Z 19007KT 28/15 A2996 RMK A01 T02760149  RH  046%=      5-min Rain = 0
KEN1 191403Z 19007KT 28/15 A2996 RMK A01 T02750151  RH  047%=      5-min Rain = 0
KEN1 191404Z 18008KT 28/15 A2996 RMK A01 T02750150  RH  046%=      5-min Rain = 0
KEN1 191405Z 17010KT 28/15 A2996 RMK A01 T02750150  RH  046%=      5-min Rain = 0
KEN1 191406Z 17009KT 28/15 A2996 RMK A01 T02750149  RH  046%=      5-min Rain = 0
KEN1 191407Z 18009KT 28/15 A2996 RMK A01 T02760149  RH  046%=      5-min Rain = 0
KEN1 191408Z 18008KT 28/15 A2996 RMK A01 T02750149  RH  046%=      5-min Rain = 0
KEN1 191409Z 17011KT 28/15 A2996 RMK A01 T02750150  RH  046%=      5-min Rain = 0
KEN1 191410Z 17011KT 28/15 A2996 RMK A01 T02770150  RH  046%=      5-min Rain = 0
KEN1 191411Z 17011KT 28/15 A2996 RMK A01 T02790149  RH  045%=      5-min Rain = 0
KEN1 191412Z 19009KT 28/15 A2996 RMK A01 T02790150  RH  045%=      5-min Rain = 0
KEN1 191413Z 17010KT 28/15 A2996 RMK A01 T02800151  RH  045%=      5-min Rain = 0
KEN1 191414Z 18012KT 28/15 A2996 RMK A01 T02820151  RH  045%=      5-min Rain = 0
KEN1 191415Z 20011KT 28/15 A2996 RMK A01 T02830151  RH  045%=      5-min Rain = 0
KEN1 191416Z 19011KT 28/15 A2996 RMK A01 T02840150  RH  044%=      5-min Rain = 0
KEN1 191417Z 18014KT 28/15 A2996 RMK A01 T02830150  RH  044%=      5-min Rain = 0
KEN1 191418Z 18013KT 28/15 A2996 RMK A01 T02820149  RH  044%=      5-min Rain = 0
KEN1 191419Z 18011KT 28/15 A2996 RMK A01 T02810150  RH  045%=      5-min Rain = 0
KEN1 191420Z 18012KT 28/15 A2996 RMK A01 T02810151  RH  045%=      5-min Rain = 0
KEN1 191421Z 19012KT 28/15 A2996 RMK A01 T02840151  RH  044%=      5-min Rain = 0
KEN1 191422Z 19012KT 29/15 A2996 RMK A01 T02850151  RH  044%=      5-min Rain = 0
KEN1 191423Z 20013KT 29/15 A2996 RMK A01 T02870150  RH  043%=      5-min Rain = 0
KEN1 191424Z 20013G20KT 28/15 A2995 RMK A01 T02840149  RH  044%=      5-min Rain = 0
KEN1 191425Z 20013G19KT 28/15 A2996 RMK A01 T02830150  RH  044%=      5-min Rain = 0
KEN1 191426Z 21014KT 28/15 A2996 RMK A01 T02830150  RH  044%=      5-min Rain = 0
KEN1 191427Z 20012KT 28/15 A2996 RMK A01 T02840151  RH  044%=      5-min Rain = 0
KEN1 191428Z 20013KT 29/15 A2996 RMK A01 T02850151  RH  044%=      5-min Rain = 0
KEN1 191429Z 19014KT 29/15 A2996 RMK A01 T02860150  RH  043%=      5-min Rain = 0
KEN1 191430Z 19013KT 29/15 A2996 RMK A01 T02860150  RH  044%=      5-min Rain = 0
KEN1 191431Z 18014KT 29/15 A2996 RMK A01 T02860151  RH  044%=      5-min Rain = 0
KEN1 191432Z 20012KT 29/15 A2996 RMK A01 T02870151  RH  043%=      5-min Rain = 0
KEN1 191433Z 19014KT 29/15 A2996 RMK A01 T02880151  RH  043%=      5-min Rain = 0
KEN1 191434Z 20014KT 29/15 A2996 RMK A01 T02900151  RH  043%=      5-min Rain = 0
KEN1 191435Z 20016KT 29/15 A2996 RMK A01 T02900150  RH  042%=      5-min Rain = 0
KEN1 191436Z 19014KT 29/15 A2996 RMK A01 T02890150  RH  043%=      5-min Rain = 0
KEN1 191437Z 19015KT 29/15 A2996 RMK A01 T02890149  RH  043%=      5-min Rain = 0
KEN1 191438Z 19015KT 29/15 A2996 RMK A01 T02890150  RH  043%=      5-min Rain = 0
KEN1 191439Z 19015KT 29/15 A2996 RMK A01 T02910149  RH  042%=      5-min Rain = 0
KEN1 191440Z 20014KT 29/15 A2995 RMK A01 T02910149  RH  042%=      5-min Rain = 0
KEN1 191441Z 20014KT 29/15 A2995 RMK A01 T02900149  RH  042%=      5-min Rain = 0
KEN1 191442Z 21015KT 29/15 A2995 RMK A01 T02910149  RH  042%=      5-min Rain = 0
KEN1 191443Z 20015KT 29/15 A2995 RMK A01 T02900148  RH  042%=      5-min Rain = 0
KEN1 191444Z 20016KT 29/15 A2996 RMK A01 T02920148  RH  042%=      5-min Rain = 0
KEN1 191445Z 21016KT 29/15 A2995 RMK A01 T02920147  RH  041%=      5-min Rain = 0
KEN1 191446Z 21014KT 29/15 A2996 RMK A01 T02920149  RH  042%=      5-min Rain = 0
KEN1 191447Z 21013KT 29/15 A2996 RMK A01 T02910149  RH  042%=      5-min Rain = 0
KEN1 191448Z 20012KT 29/15 A2996 RMK A01 T02930150  RH  042%=      5-min Rain = 0
KEN1 191449Z 21014KT 30/15 A2996 RMK A01 T02970151  RH  041%=      5-min Rain = 0
KEN1 191450Z 21016KT 30/15 A2996 RMK A01 T02990149  RH  040%=      5-min Rain = 0
KEN1 191451Z 21014KT 30/15 A2996 RMK A01 T02980149  RH  040%=      5-min Rain = 0
KEN1 191452Z 21015KT 30/15 A2996 RMK A01 T02980150  RH  041%=      5-min Rain = 0
KEN1 191453Z 20012KT 30/15 A2996 RMK A01 T02970150  RH  041%=      5-min Rain = 0
KEN1 191454Z 20014KT 30/15 A2995 RMK A01 T02990150  RH  040%=      5-min Rain = 0
KEN1 191455Z 20013KT 30/15 A2996 RMK A01 T03010150  RH  040%=      5-min Rain = 0
KEN1 191456Z 21013KT 30/15 A2996 RMK A01 T03030150  RH  040%=      5-min Rain = 0
KEN1 191457Z 21016KT 30/15 A2995 RMK A01 T03030150  RH  039%=      5-min Rain = 0
KEN1 191458Z 22015KT 30/15 A2996 RMK A01 T03010149  RH  040%=      5-min Rain = 0
KEN1 191459Z 21015KT 30/15 A2996 RMK A01 T03000149  RH  040%=      5-min Rain = 0
KEN1 191500Z 20013KT 30/15 A2996 RMK A01 T03000150  RH  040%=      5-min Rain = 0
KEN1 191501Z 21015KT 30/15 A2996 RMK A01 T03000150  RH  040%=      5-min Rain = 0
KEN1 191502Z 21015KT 30/15 A2996 RMK A01 T03010150  RH  040%=      5-min Rain = 0
KEN1 191503Z 21015KT 30/15 A2996 RMK A01 T03010149  RH  040%=      5-min Rain = 0
KEN1 191504Z 21016G21KT 30/15 A2996 RMK A01 T03010150  RH  040%=      5-min Rain = 0
KEN1 191505Z 20017KT 30/15 A2996 RMK A01 T03020149  RH  039%=      5-min Rain = 0
KEN1 191506Z 20018KT 30/15 A2996 RMK A01 T03020148  RH  039%=      5-min Rain = 0
KEN1 191507Z 20016KT 30/15 A2996 RMK A01 T03010149  RH  040%=      5-min Rain = 0
KEN1 191508Z 20017KT 30/15 A2996 RMK A01 T03010148  RH  039%=      5-min Rain = 0
KEN1 191509Z 20018KT 30/15 A2995 RMK A01 T03010148  RH  039%=      5-min Rain = 0
KEN1 191510Z 20019KT 30/15 A2995 RMK A01 T03020148  RH  039%=      5-min Rain = 0
KEN1 191511Z 21017KT 30/15 A2995 RMK A01 T03020148  RH  039%=      5-min Rain = 0
KEN1 191512Z 21017KT 30/15 A2995 RMK A01 T03020148  RH  039%=      5-min Rain = 0
KEN1 191513Z 21017KT 30/15 A2995 RMK A01 T03020149  RH  039%=      5-min Rain = 0
KEN1 191514Z 21017KT 30/15 A2995 RMK A01 T03020149  RH  039%=      5-min Rain = 0
KEN1 191515Z 22015KT 30/15 A2995 RMK A01 T03030149  RH  039%=      5-min Rain = 0
KEN1 191516Z 22016KT 30/15 A2995 RMK A01 T03040150  RH  039%=      5-min Rain = 0
KEN1 191517Z 22013KT 31/15 A2995 RMK A01 T03060150  RH  039%=      5-min Rain = 0
KEN1 191518Z 21014KT 31/15 A2995 RMK A01 T03080152  RH  039%=      5-min Rain = 0
KEN1 191519Z 20011KT 31/15 A2995 RMK A01 T03100151  RH  038%=      5-min Rain = 0
KEN1 191520Z 20016KT 31/15 A2995 RMK A01 T03120151  RH  038%=      5-min Rain = 0
KEN1 191521Z 21017KT 31/15 A2995 RMK A01 T03120151  RH  038%=      5-min Rain = 0
KEN1 191522Z 20018KT 31/15 A2995 RMK A01 T03120149  RH  037%=      5-min Rain = 0
KEN1 191523Z 20015KT 31/15 A2995 RMK A01 T03090149  RH  038%=      5-min Rain = 0
KEN1 191524Z 20017KT 31/15 A2995 RMK A01 T03080150  RH  038%=      5-min Rain = 0
KEN1 191525Z 20016KT 31/15 A2995 RMK A01 T03070150  RH  038%=      5-min Rain = 0
KEN1 191526Z 21013KT 31/15 A2995 RMK A01 T03090151  RH  038%=      5-min Rain = 0
KEN1 191527Z 21015KT 31/15 A2995 RMK A01 T03120152  RH  038%=      5-min Rain = 0
KEN1 191528Z 20015KT 31/15 A2995 RMK A01 T03130152  RH  038%=      5-min Rain = 0
KEN1 191529Z 21014KT 31/15 A2995 RMK A01 T03120152  RH  038%=      5-min Rain = 0
KEN1 191530Z 22013KT 31/15 A2995 RMK A01 T03130153  RH  038%=      5-min Rain = 0
KEN1 191531Z 20012KT 31/15 A2995 RMK A01 T03140152  RH  038%=      5-min Rain = 0
KEN1 191532Z 21013KT 31/15 A2995 RMK A01 T03130153  RH  038%=      5-min Rain = 0
KEN1 191533Z 21014KT 31/15 A2995 RMK A01 T03130151  RH  038%=      5-min Rain = 0
KEN1 191534Z 22014KT 31/15 A2995 RMK A01 T03130149  RH  037%=      5-min Rain = 0
KEN1 191535Z 20013KT 31/15 A2995 RMK A01 T03120151  RH  038%=      5-min Rain = 0
KEN1 191536Z 20013KT 31/15 A2995 RMK A01 T03120152  RH  038%=      5-min Rain = 0
KEN1 191537Z 20012KT 32/15 A2995 RMK A01 T03150152  RH  037%=      5-min Rain = 0
KEN1 191538Z 21013KT 32/15 A2995 RMK A01 T03170150  RH  036%=      5-min Rain = 0
KEN1 191539Z 21011KT 32/15 A2995 RMK A01 T03190150  RH  036%=      5-min Rain = 0
KEN1 191540Z 20013KT 32/15 A2995 RMK A01 T03190148  RH  036%=      5-min Rain = 0
KEN1 191541Z 21013KT 32/15 A2995 RMK A01 T03200150  RH  036%=      5-min Rain = 0
KEN1 191542Z 21013KT 32/15 A2995 RMK A01 T03210151  RH  036%=      5-min Rain = 0
KEN1 191543Z 19013KT 32/15 A2995 RMK A01 T03200149  RH  036%=      5-min Rain = 0
KEN1 191544Z 19012G17KT 32/15 A2995 RMK A01 T03200149  RH  036%=      5-min Rain = 0
KEN1 191545Z 20015KT 32/15 A2995 RMK A01 T03210148  RH  035%=      5-min Rain = 0
KEN1 191546Z 19014KT 32/15 A2995 RMK A01 T03200148  RH  035%=      5-min Rain = 0
KEN1 191547Z 20017KT 32/15 A2995 RMK A01 T03210148  RH  035%=      5-min Rain = 0
KEN1 191548Z 20015KT 32/15 A2995 RMK A01 T03210148  RH  035%=      5-min Rain = 0
KEN1 191549Z 20011KT 32/15 A2995 RMK A01 T03190148  RH  035%=      5-min Rain = 0
KEN1 191550Z 20013KT 32/15 A2995 RMK A01 T03210151  RH  036%=      5-min Rain = 0
KEN1 191551Z 20013KT 32/15 A2995 RMK A01 T03230150  RH  035%=      5-min Rain = 0
KEN1 191552Z 20011KT 32/15 A2995 RMK A01 T03240149  RH  035%=      5-min Rain = 0
KEN1 191553Z 20014KT 33/15 A2995 RMK A01 T03250151  RH  035%=      5-min Rain = 0
KEN1 191554Z 20015KT 33/15 A2995 RMK A01 T03270150  RH  034%=      5-min Rain = 0
KEN1 191555Z 21015KT 33/15 A2995 RMK A01 T03260147  RH  034%=      5-min Rain = 0
KEN1 191556Z 20013KT 33/15 A2995 RMK A01 T03250147  RH  034%=      5-min Rain = 0
KEN1 191557Z 21012KT 32/15 A2995 RMK A01 T03240147  RH  034%=      5-min Rain = 0
KEN1 191558Z 21011KT 33/15 A2995 RMK A01 T03260149  RH  034%=      5-min Rain = 0
KEN1 191559Z 22016KT 33/15 A2995 RMK A01 T03290147  RH  033%=      5-min Rain = 0
KEN1 191600Z 21015KT 33/15 A2995 RMK A01 T03280145  RH  033%=      5-min Rain = 0
KEN1 191601Z 22013KT 33/14 A2995 RMK A01 T03250144  RH  034%=      5-min Rain = 0
KEN1 191602Z 22012KT 32/14 A2995 RMK A01 T03220144  RH  034%=      5-min Rain = 0
KEN1 191603Z 21013KT 32/15 A2995 RMK A01 T03240146  RH  034%=      5-min Rain = 0
KEN1 191604Z 20012KT 33/15 A2995 RMK A01 T03280148  RH  034%=      5-min Rain = 0
KEN1 191605Z 21012KT 33/15 A2995 RMK A01 T03310147  RH  033%=      5-min Rain = 0
KEN1 191606Z 20014KT 33/15 A2995 RMK A01 T03320147  RH  033%=      5-min Rain = 0
KEN1 191607Z 21013KT 33/15 A2995 RMK A01 T03290146  RH  033%=      5-min Rain = 0
KEN1 191608Z 20013KT 33/15 A2995 RMK A01 T03280145  RH  033%=      5-min Rain = 0
KEN1 191609Z 20013KT 33/15 A2995 RMK A01 T03290146  RH  033%=      5-min Rain = 0
KEN1 191610Z 20017KT 33/15 A2995 RMK A01 T03300146  RH  033%=      5-min Rain = 0
KEN1 191611Z 20015KT 33/15 A2995 RMK A01 T03310145  RH  033%=      5-min Rain = 0
KEN1 191612Z 20014KT 33/15 A2995 RMK A01 T03300145  RH  033%=      5-min Rain = 0
KEN1 191613Z 21011KT 33/15 A2995 RMK A01 T03320147  RH  033%=      5-min Rain = 0
KEN1 191614Z 21012KT 34/15 A2995 RMK A01 T03350148  RH  032%=      5-min Rain = 0
KEN1 191615Z 22011KT 34/15 A2995 RMK A01 T03370146  RH  032%=      5-min Rain = 0
KEN1 191616Z 21013KT 34/15 A2995 RMK A01 T03370146  RH  032%=      5-min Rain = 0
KEN1 191617Z 20010KT 34/15 A2995 RMK A01 T03350148  RH  033%=      5-min Rain = 0
KEN1 191618Z 21012KT 34/15 A2995 RMK A01 T03360148  RH  032%=      5-min Rain = 0
KEN1 191619Z 22013KT 34/14 A2995 RMK A01 T03370144  RH  031%=      5-min Rain = 0
KEN1 191620Z 19013KT 34/15 A2995 RMK A01 T03360147  RH  032%=      5-min Rain = 0
KEN1 191621Z 21015KT 34/15 A2995 RMK A01 T03350146  RH  032%=      5-min Rain = 0
KEN1 191622Z 22011KT 34/15 A2995 RMK A01 T03360145  RH  032%=      5-min Rain = 0
KEN1 191623Z 21014KT 34/15 A2995 RMK A01 T03370145  RH  031%=      5-min Rain = 0
KEN1 191624Z 21014KT 34/14 A2995 RMK A01 T03380142  RH  031%=      5-min Rain = 0
KEN1 191625Z 20012KT 34/14 A2995 RMK A01 T03370140  RH  031%=      5-min Rain = 0
KEN1 191626Z 22013KT 34/14 A2995 RMK A01 T03360144  RH  032%=      5-min Rain = 0
KEN1 191627Z 21014KT 34/14 A2995 RMK A01 T03360144  RH  031%=      5-min Rain = 0
KEN1 191628Z 23012KT 34/14 A2995 RMK A01 T03360143  RH  031%=      5-min Rain = 0
KEN1 191629Z 23011KT 34/14 A2995 RMK A01 T03370141  RH  031%=      5-min Rain = 0
KEN1 191630Z 22012KT 34/14 A2995 RMK A01 T03380143  RH  031%=      5-min Rain = 0
KEN1 191631Z 20014KT 34/14 A2995 RMK A01 T03380140  RH  030%=      5-min Rain = 0
KEN1 191632Z 22012KT 34/14 A2995 RMK A01 T03390141  RH  030%=      5-min Rain = 0
KEN1 191633Z 21011KT 34/14 A2995 RMK A01 T03410139  RH  030%=      5-min Rain = 0
KEN1 191634Z 21011KT 34/14 A2995 RMK A01 T03410142  RH  030%=      5-min Rain = 0
KEN1 191635Z 21011KT 34/14 A2995 RMK A01 T03390144  RH  031%=      5-min Rain = 0
KEN1 191636Z 21014KT 34/14 A2995 RMK A01 T03380144  RH  031%=      5-min Rain = 0
KEN1 191637Z 21012KT 34/14 A2995 RMK A01 T03390142  RH  031%=      5-min Rain = 0
KEN1 191638Z 20009KT 34/14 A2995 RMK A01 T03380142  RH  031%=      5-min Rain = 0
KEN1 191639Z 20010KT 34/15 A2995 RMK A01 T03400146  RH  031%=      5-min Rain = 0
KEN1 191640Z 22011KT 35/15 A2995 RMK A01 T03450147  RH  031%=      5-min Rain = 0
KEN1 191641Z 22011KT 35/15 A2995 RMK A01 T03460146  RH  030%=      5-min Rain = 0
KEN1 191642Z 21012KT 35/15 A2995 RMK A01 T03450148  RH  031%=      5-min Rain = 0
KEN1 191643Z 22013KT 35/15 A2995 RMK A01 T03460145  RH  030%=      5-min Rain = 0
KEN1 191644Z 23009KT 35/14 A2995 RMK A01 T03450139  RH  029%=      5-min Rain = 0
KEN1 191645Z 22008KT 35/14 A2995 RMK A01 T03450140  RH  029%=      5-min Rain = 0
KEN1 191646Z 20012G18KT 35/14 A2995 RMK A01 T03480144  RH  029%=      5-min Rain = 0
KEN1 191647Z 20011KT 35/15 A2995 RMK A01 T03470145  RH  030%=      5-min Rain = 0
KEN1 191648Z 19010KT 35/15 A2995 RMK A01 T03450146  RH  030%=      5-min Rain = 0
KEN1 191649Z 22015KT 35/14 A2995 RMK A01 T03480144  RH  029%=      5-min Rain = 0
KEN1 191650Z 21012KT 35/14 A2995 RMK A01 T03490143  RH  029%=      5-min Rain = 0
KEN1 191651Z 20013KT 35/15 A2995 RMK A01 T03490145  RH  030%=      5-min Rain = 0
KEN1 191652Z 20012KT 35/14 A2995 RMK A01 T03460141  RH  029%=      5-min Rain = 0
KEN1 191653Z 21014KT 34/14 A2995 RMK A01 T03430141  RH  030%=      5-min Rain = 0
KEN1 191654Z 20011KT 34/14 A2995 RMK A01 T03440143  RH  030%=      5-min Rain = 0
KEN1 191655Z 19010G16KT 34/14 A2995 RMK A01 T03440142  RH  030%=      5-min Rain = 0
KEN1 191656Z 19013KT 35/15 A2994 RMK A01 T03470146  RH  030%=      5-min Rain = 0
KEN1 191657Z 19013KT 35/15 A2994 RMK A01 T03490146  RH  030%=      5-min Rain = 0
KEN1 191658Z 21009KT 35/15 A2995 RMK A01 T03500145  RH  029%=      5-min Rain = 0
KEN1 191659Z 22012KT 35/14 A2995 RMK A01 T03490141  RH  029%=      5-min Rain = 0
KEN1 191700Z 21011G18KT 35/14 A2995 RMK A01 T03490139  RH  029%=      5-min Rain = 0
KEN1 191701Z 21014G19KT 35/14 A2994 RMK A01 T03500138  RH  028%=      5-min Rain = 0
KEN1 191702Z 21008KT 35/14 A2995 RMK A01 T03500138  RH  028%=      5-min Rain = 0
KEN1 191703Z 21006KT 35/14 A2995 RMK A01 T03500140  RH  028%=      5-min Rain = 0
KEN1 191704Z 20010KT 35/14 A2995 RMK A01 T03510142  RH  029%=      5-min Rain = 0
KEN1 191705Z 19011KT 35/14 A2995 RMK A01 T03510141  RH  028%=      5-min Rain = 0
KEN1 191706Z 19011KT 35/14 A2995 RMK A01 T03500139  RH  028%=      5-min Rain = 0
KEN1 191707Z 20013KT 35/14 A2994 RMK A01 T03500141  RH  029%=      5-min Rain = 0
KEN1 191708Z 21008KT 35/14 A2995 RMK A01 T03500140  RH  028%=      5-min Rain = 0
KEN1 191709Z 19007KT 35/14 A2995 RMK A01 T03470139  RH  029%=      5-min Rain = 0
KEN1 191710Z 18013KT 35/14 A2995 RMK A01 T03500139  RH  028%=      5-min Rain = 0
KEN1 191711Z 20014KT 35/14 A2994 RMK A01 T03520137  RH  028%=      5-min Rain = 0
KEN1 191712Z 21012KT 35/14 A2994 RMK A01 T03540138  RH  028%=      5-min Rain = 0
KEN1 191713Z 21011KT 36/14 A2995 RMK A01 T03560137  RH  027%=      5-min Rain = 0
KEN1 191714Z 20010G15KT 35/14 A2995 RMK A01 T03540137  RH  027%=      5-min Rain = 0
KEN1 191715Z 20012KT 35/14 A2995 RMK A01 T03520139  RH  028%=      5-min Rain = 0
KEN1 191716Z 20009KT 35/14 A2995 RMK A01 T03510140  RH  028%=      5-min Rain = 0
KEN1 191717Z 20014KT 35/14 A2994 RMK A01 T03510141  RH  028%=      5-min Rain = 0
KEN1 191718Z 19013KT 36/14 A2994 RMK A01 T03550137  RH  027%=      5-min Rain = 0
KEN1 191719Z 20011KT 36/14 A2994 RMK A01 T03570139  RH  027%=      5-min Rain = 0
KEN1 191720Z 20010G15KT 36/14 A2994 RMK A01 T03580139  RH  027%=      5-min Rain = 0
KEN1 191721Z 19012KT 36/14 A2994 RMK A01 T03550139  RH  027%=      5-min Rain = 0
KEN1 191722Z 19012KT 36/14 A2994 RMK A01 T03550139  RH  027%=      5-min Rain = 0
KEN1 191723Z 19009KT 35/14 A2994 RMK A01 T03540136  RH  027%=      5-min Rain = 0
KEN1 191724Z 18008KT 35/13 A2994 RMK A01 T03510134  RH  027%=      5-min Rain = 0
KEN1 191725Z 20010KT 35/13 A2994 RMK A01 T03520134  RH  027%=      5-min Rain = 0
KEN1 191726Z 20013KT 36/14 A2994 RMK A01 T03580137  RH  027%=      5-min Rain = 0
KEN1 191727Z 19011G18KT 36/13 A2994 RMK A01 T03580134  RH  026%=      5-min Rain = 0
KEN1 191728Z 21015KT 36/14 A2994 RMK A01 T03570136  RH  027%=      5-min Rain = 0
KEN1 191729Z 20014KT 36/14 A2994 RMK A01 T03580135  RH  026%=      5-min Rain = 0
KEN1 191730Z 19015KT 36/13 A2994 RMK A01 T03570134  RH  026%=      5-min Rain = 0
KEN1 191731Z 20012KT 36/13 A2994 RMK A01 T03570130  RH  026%=      5-min Rain = 0
KEN1 191732Z 21008KT 36/13 A2994 RMK A01 T03560134  RH  026%=      5-min Rain = 0
KEN1 191733Z 20011G16KT 36/14 A2994 RMK A01 T03550137  RH  027%=      5-min Rain = 0
KEN1 191734Z 21013G18KT 36/14 A2994 RMK A01 T03590137  RH  027%=      5-min Rain = 0
KEN1 191735Z 21016KT 36/14 A2994 RMK A01 T03620137  RH  026%=      5-min Rain = 0
KEN1 191736Z 21013KT 36/13 A2994 RMK A01 T03610133  RH  026%=      5-min Rain = 0
KEN1 191737Z 20011KT 36/13 A2994 RMK A01 T03610131  RH  025%=      5-min Rain = 0
KEN1 191738Z 19012KT 36/13 A2994 RMK A01 T03600126  RH  025%=      5-min Rain = 0
KEN1 191739Z 20010KT 36/13 A2994 RMK A01 T03600128  RH  025%=      5-min Rain = 0
KEN1 191740Z 19011KT 36/13 A2994 RMK A01 T03600132  RH  025%=      5-min Rain = 0
KEN1 191741Z 19011KT 36/13 A2994 RMK A01 T03620131  RH  025%=      5-min Rain = 0
KEN1 191742Z 20009KT 36/12 A2994 RMK A01 T03640123  RH  024%=      5-min Rain = 0
KEN1 191743Z 21012KT 36/13 A2994 RMK A01 T03630128  RH  024%=      5-min Rain = 0
KEN1 191744Z 21010KT 36/13 A2994 RMK A01 T03610131  RH  025%=      5-min Rain = 0
KEN1 191745Z 21012KT 36/14 A2994 RMK A01 T03640137  RH  026%=      5-min Rain = 0
KEN1 191746Z 21013KT 37/14 A2994 RMK A01 T03700136  RH  025%=      5-min Rain = 0
KEN1 191747Z 22014KT 37/13 A2994 RMK A01 T03690130  RH  024%=      5-min Rain = 0
KEN1 191748Z 22009KT 36/13 A2994 RMK A01 T03640126  RH  024%=      5-min Rain = 0
KEN1 191749Z 22012KT 36/13 A2994 RMK A01 T03630130  RH  025%=      5-min Rain = 0
KEN1 191750Z 21011KT 37/13 A2994 RMK A01 T03660128  RH  024%=      5-min Rain = 0
KEN1 191751Z 24012KT 37/13 A2994 RMK A01 T03670127  RH  024%=      5-min Rain = 0
KEN1 191752Z 22010KT 36/13 A2994 RMK A01 T03630125  RH  024%=      5-min Rain = 0
KEN1 191753Z 21007KT 36/12 A2994 RMK A01 T03610120  RH  024%=      5-min Rain = 0
KEN1 191754Z 17009KT 36/13 A2994 RMK A01 T03610125  RH  024%=      5-min Rain = 0
KEN1 191755Z 20007KT 36/13 A2994 RMK A01 T03630127  RH  024%=      5-min Rain = 0
KEN1 191756Z 18011KT 37/13 A2994 RMK A01 T03650127  RH  024%=      5-min Rain = 0
KEN1 191757Z 20011KT 37/13 A2994 RMK A01 T03680134  RH  025%=      5-min Rain = 0
KEN1 191758Z 21009KT 37/13 A2994 RMK A01 T03710131  RH  024%=      5-min Rain = 0
KEN1 191759Z 24010KT 37/13 A2994 RMK A01 T03700125  RH  023%=      5-min Rain = 0
KEN1 191800Z 23010G15KT 37/12 A2994 RMK A01 T03670123  RH  023%=      5-min Rain = 0
KEN1 191801Z 22012KT 37/12 A2994 RMK A01 T03660121  RH  023%=      5-min Rain = 0
KEN1 191802Z 23012KT 37/12 A2994 RMK A01 T03690121  RH  023%=      5-min Rain = 0
KEN1 191803Z 23011KT 37/12 A2994 RMK A01 T03680118  RH  022%=      5-min Rain = 0
KEN1 191804Z 23009G14KT 37/12 A2994 RMK A01 T03680120  RH  023%=      5-min Rain = 0
KEN1 191805Z 23009KT 37/12 A2994 RMK A01 T03690122  RH  023%=      5-min Rain = 0
KEN1 191806Z 19011KT 37/12 A2994 RMK A01 T03710123  RH  023%=      5-min Rain = 0
KEN1 191807Z 19008KT 37/12 A2994 RMK A01 T03710123  RH  023%=      5-min Rain = 0
KEN1 191808Z 19008KT 37/12 A2994 RMK A01 T03700123  RH  023%=      5-min Rain = 0
KEN1 191809Z 23007KT 37/12 A2994 RMK A01 T03710121  RH  022%=      5-min Rain = 0
KEN1 191810Z 23006KT 37/12 A2993 RMK A01 T03690124  RH  023%=      5-min Rain = 0
KEN1 191811Z 22008G16KT 37/13 A2993 RMK A01 T03670125  RH  023%=      5-min Rain = 0
KEN1 191812Z 22014KT 37/12 A2993 RMK A01 T03690121  RH  023%=      5-min Rain = 0
KEN1 191813Z 22010KT 37/12 A2993 RMK A01 T03720123  RH  023%=      5-min Rain = 0
KEN1 191814Z 23008KT 37/12 A2993 RMK A01 T03700123  RH  023%=      5-min Rain = 0
KEN1 191815Z 22005KT 37/12 A2993 RMK A01 T03680123  RH  023%=      5-min Rain = 0
KEN1 191816Z 22009KT 37/13 A2993 RMK A01 T03710128  RH  023%=      5-min Rain = 0
KEN1 191817Z 22012KT 37/13 A2993 RMK A01 T03730130  RH  023%=      5-min Rain = 0
KEN1 191818Z 20011KT 37/13 A2993 RMK A01 T03720129  RH  023%=      5-min Rain = 0
KEN1 191819Z 20006KT 37/13 A2993 RMK A01 T03690127  RH  024%=      5-min Rain = 0
KEN1 191820Z 19007KT 37/13 A2993 RMK A01 T03710133  RH  024%=      5-min Rain = 0
KEN1 191821Z 19006KT 38/13 A2993 RMK A01 T03770130  RH  023%=      5-min Rain = 0
KEN1 191822Z 22009KT 38/13 A2993 RMK A01 T03810129  RH  022%=      5-min Rain = 0
KEN1 191823Z 22009KT 38/13 A2993 RMK A01 T03820126  RH  022%=      5-min Rain = 0
KEN1 191824Z 22012KT 38/12 A2993 RMK A01 T03830122  RH  021%=      5-min Rain = 0
KEN1 191825Z 21007KT 38/12 A2993 RMK A01 T03800117  RH  021%=      5-min Rain = 0
KEN1 191826Z 22007KT 38/12 A2993 RMK A01 T03770119  RH  021%=      5-min Rain = 0
KEN1 191827Z 22009KT 38/12 A2993 RMK A01 T03750123  RH  022%=      5-min Rain = 0
KEN1 191828Z 23011KT 38/12 A2993 RMK A01 T03760124  RH  022%=      5-min Rain = 0
KEN1 191829Z 24008KT 38/13 A2993 RMK A01 T03750125  RH  022%=      5-min Rain = 0
KEN1 191830Z 23009KT 38/13 A2993 RMK A01 T03760130  RH  023%=      5-min Rain = 0
KEN1 191831Z 20005KT 38/13 A2993 RMK A01 T03770130  RH  023%=      5-min Rain = 0
KEN1 191832Z 16009KT 38/13 A2993 RMK A01 T03780133  RH  023%=      5-min Rain = 0
KEN1 191833Z 17010KT 38/13 A2993 RMK A01 T03790130  RH  023%=      5-min Rain = 0
KEN1 191834Z 18007KT 38/13 A2993 RMK A01 T03750130  RH  023%=      5-min Rain = 0
KEN1 191835Z 21010G16KT 38/13 A2992 RMK A01 T03760130  RH  023%=      5-min Rain = 0
KEN1 191836Z 22015KT 38/12 A2992 RMK A01 T03820120  RH  021%=      5-min Rain = 0
KEN1 191837Z 22012KT 39/12 A2992 RMK A01 T03850121  RH  021%=      5-min Rain = 0
KEN1 191838Z 25014KT 39/12 A2993 RMK A01 T03860124  RH  021%=      5-min Rain = 0
KEN1 191839Z 24008KT 39/12 A2993 RMK A01 T03850124  RH  021%=      5-min Rain = 0
KEN1 191840Z 24009KT 38/12 A2993 RMK A01 T03830122  RH  021%=      5-min Rain = 0
KEN1 191841Z 22011KT 38/12 A2992 RMK A01 T03790119  RH  021%=      5-min Rain = 0
KEN1 191842Z 21014KT 38/12 A2992 RMK A01 T03790119  RH  021%=      5-min Rain = 0
KEN1 191843Z 21014KT 38/12 A2992 RMK A01 T03820118  RH  021%=      5-min Rain = 0
KEN1 191844Z 21009KT 38/12 A2992 RMK A01 T03820118  RH  021%=      5-min Rain = 0
KEN1 191845Z 21012KT 38/12 A2992 RMK A01 T03820115  RH  020%=      5-min Rain = 0
KEN1 191846Z 20010KT 38/12 A2992 RMK A01 T03830118  RH  020%=      5-min Rain = 0
KEN1 191847Z 22008KT 39/12 A2992 RMK A01 T03880121  RH  020%=      5-min Rain = 0
KEN1 191848Z 20008KT 39/12 A2992 RMK A01 T03880117  RH  020%=      5-min Rain = 0
KEN1 191849Z 21010KT 39/12 A2992 RMK A01 T03860118  RH  020%=      5-min Rain = 0
KEN1 191850Z 22010KT 39/12 A2992 RMK A01 T03870120  RH  020%=      5-min Rain = 0
KEN1 191851Z 20014KT 39/12 A2992 RMK A01 T03850117  RH  020%=      5-min Rain = 0
KEN1 191852Z 20011KT 39/11 A2992 RMK A01 T03850114  RH  020%=      5-min Rain = 0
KEN1 191853Z 19013KT 39/11 A2992 RMK A01 T03850113  RH  020%=      5-min Rain = 0
KEN1 191854Z 20013KT 39/11 A2992 RMK A01 T03860114  RH  020%=      5-min Rain = 0
KEN1 191855Z 19009KT 39/12 A2992 RMK A01 T03870117  RH  020%=      5-min Rain = 0
KEN1 191856Z 18015KT 39/12 A2992 RMK A01 T03870118  RH  020%=      5-min Rain = 0
KEN1 191857Z 17012KT 38/12 A2992 RMK A01 T03840117  RH  020%=      5-min Rain = 0
KEN1 191858Z 18011KT 38/12 A2992 RMK A01 T03820117  RH  020%=      5-min Rain = 0
KEN1 191859Z 18011KT 38/12 A2992 RMK A01 T03820118  RH  021%=      5-min Rain = 0
KEN1 191900Z 20012KT 38/12 A2992 RMK A01 T03820117  RH  020%=      5-min Rain = 0
KEN1 191901Z 17009KT 38/12 A2992 RMK A01 T03810116  RH  021%=      5-min Rain = 0
KEN1 191902Z 19011G19KT 38/12 A2992 RMK A01 T03840120  RH  021%=      5-min Rain = 0
KEN1 191903Z 20014KT 39/12 A2992 RMK A01 T03910118  RH  020%=      5-min Rain = 0
KEN1 191904Z 21010G16KT 39/12 A2992 RMK A01 T03920117  RH  019%=      5-min Rain = 0
KEN1 191905Z 19019G35KT 39/12 A2992 RMK A01 T03900118  RH  020%=      5-min Rain = 0
KEN1 191906Z 19017KT 39/12 A2992 RMK A01 T03900117  RH  020%=      5-min Rain = 0
KEN1 191907Z 19012KT 39/11 A2992 RMK A01 T03890112  RH  019%=      5-min Rain = 0
KEN1 191908Z 19011KT 39/11 A2992 RMK A01 T03860114  RH  020%=      5-min Rain = 0
KEN1 191909Z 20008KT 38/11 A2992 RMK A01 T03840112  RH  020%=      5-min Rain = 0
KEN1 191910Z 20008KT 38/11 A2992 RMK A01 T03820114  RH  020%=      5-min Rain = 0
KEN1 191911Z 17009KT 38/12 A2992 RMK A01 T03840115  RH  020%=      5-min Rain = 0
KEN1 191912Z 18016KT 39/11 A2992 RMK A01 T03890114  RH  019%=      5-min Rain = 0
KEN1 191913Z 19016KT 39/11 A2991 RMK A01 T03910113  RH  019%=      5-min Rain = 0
KEN1 191914Z 19013KT 39/11 A2991 RMK A01 T03910112  RH  019%=      5-min Rain = 0
KEN1 191915Z 20015KT 39/11 A2991 RMK A01 T03930114  RH  019%=      5-min Rain = 0
KEN1 191916Z 20010KT 39/11 A2991 RMK A01 T03920111  RH  019%=      5-min Rain = 0
KEN1 191917Z 19012KT 39/11 A2991 RMK A01 T03890111  RH  019%=      5-min Rain = 0
KEN1 191918Z 18010KT 39/11 A2991 RMK A01 T03870109  RH  019%=      5-min Rain = 0
KEN1 191919Z 18013KT 39/11 A2991 RMK A01 T03850110  RH  019%=      5-min Rain = 0
KEN1 191920Z 20016KT 39/11 A2991 RMK A01 T03880112  RH  019%=      5-min Rain = 0
KEN1 191921Z 21010KT 39/11 A2991 RMK A01 T03880110  RH  019%=      5-min Rain = 0
KEN1 191922Z 22013KT 39/11 A2991 RMK A01 T03860110  RH  019%=      5-min Rain = 0
KEN1 191923Z 21009KT 38/11 A2991 RMK A01 T03840110  RH  019%=      5-min Rain = 0
KEN1 191924Z 18014KT 39/11 A2991 RMK A01 T03860113  RH  020%=      5-min Rain = 0
KEN1 191925Z 21014KT 39/11 A2991 RMK A01 T03890110  RH  019%=      5-min Rain = 0
KEN1 191926Z 22015KT 39/11 A2991 RMK A01 T03910108  RH  018%=      5-min Rain = 0
KEN1 191927Z 22014KT 39/11 A2991 RMK A01 T03940107  RH  018%=      5-min Rain = 0
KEN1 191928Z 22015KT 39/11 A2991 RMK A01 T03920105  RH  018%=      5-min Rain = 0
KEN1 191929Z 22011KT 39/10 A2991 RMK A01 T03890104  RH  018%=      5-min Rain = 0
KEN1 191930Z 22013KT 39/11 A2991 RMK A01 T03890107  RH  018%=      5-min Rain = 0
KEN1 191931Z 18014KT 39/11 A2991 RMK A01 T03910109  RH  019%=      5-min Rain = 0
KEN1 191932Z 18014KT 39/11 A2991 RMK A01 T03920108  RH  018%=      5-min Rain = 0
KEN1 191933Z 18016KT 39/11 A2991 RMK A01 T03930110  RH  018%=      5-min Rain = 0
KEN1 191934Z 19015KT 40/11 A2991 RMK A01 T03970112  RH  018%=      5-min Rain = 0
KEN1 191935Z 18016KT 40/11 A2991 RMK A01 T03980112  RH  018%=      5-min Rain = 0
KEN1 191936Z 18013KT 39/11 A2991 RMK A01 T03940112  RH  019%=      5-min Rain = 0
KEN1 191937Z 18011KT 39/11 A2991 RMK A01 T03920112  RH  019%=      5-min Rain = 0
KEN1 191938Z 19009KT 39/11 A2991 RMK A01 T03930113  RH  019%=      5-min Rain = 0
KEN1 191939Z 21012G17KT 40/11 A2991 RMK A01 T03950114  RH  019%=      5-min Rain = 0
KEN1 191940Z 20012KT 40/11 A2991 RMK A01 T03970110  RH  018%=      5-min Rain = 0
KEN1 191941Z 21014KT 40/11 A299 RMK A01 T03980110  RH  018%=      5-min Rain = 0
KEN1 191942Z 20012KT 40/11 A2991 RMK A01 T03970111  RH  018%=      5-min Rain = 0
KEN1 191943Z 20011KT 40/11 A2991 RMK A01 T03970114  RH  019%=      5-min Rain = 0
KEN1 191944Z 19012KT 40/11 A299 RMK A01 T03970110  RH  018%=      5-min Rain = 0
KEN1 191945Z 18013KT 40/11 A299 RMK A01 T03950113  RH  019%=      5-min Rain = 0
KEN1 191946Z 22014KT 40/11 A299 RMK A01 T03970108  RH  018%=      5-min Rain = 0
KEN1 191947Z 22014KT 40/10 A299 RMK A01 T03950104  RH  018%=      5-min Rain = 0
KEN1 191948Z 22012KT 39/11 A299 RMK A01 T03930105  RH  018%=      5-min Rain = 0
KEN1 191949Z 23010KT 39/10 A299 RMK A01 T03910102  RH  018%=      5-min Rain = 0
KEN1 191950Z 23012G20KT 39/10 A299 RMK A01 T03890100  RH  018%=      5-min Rain = 0
KEN1 191951Z 22016G21KT 39/10 A299 RMK A01 T03920101  RH  018%=      5-min Rain = 0
KEN1 191952Z 20016KT 39/10 A299 RMK A01 T03930102  RH  017%=      5-min Rain = 0
KEN1 191953Z 22012KT 39/10 A299 RMK A01 T03930100  RH  017%=      5-min Rain = 0
KEN1 191954Z 23011KT 39/10 A299 RMK A01 T03940096  RH  017%=      5-min Rain = 0
KEN1 191955Z 23013KT 39/10 A299 RMK A01 T03940098  RH  017%=      5-min Rain = 0
KEN1 191956Z 22015KT 40/10 A299 RMK A01 T03950097  RH  017%=      5-min Rain = 0
KEN1 191957Z 23017G22KT 39/10 A299 RMK A01 T03930095  RH  017%=      5-min Rain = 0
KEN1 191958Z 23013KT 39/10 A299 RMK A01 T03940095  RH  017%=      5-min Rain = 0
KEN1 191959Z 22011KT 40/10 A299 RMK A01 T03950098  RH  017%=      5-min Rain = 0
KEN1 192000Z 22014G23KT 39/10 A299 RMK A01 T03940099  RH  017%=      5-min Rain = 0
KEN1 192001Z 21017G24KT 39/09 A299 RMK A01 T03940091  RH  016%=      5-min Rain = 0
KEN1 192002Z 21013KT 40/09 A299 RMK A01 T03950091  RH  016%=      5-min Rain = 0
KEN1 192003Z 19013KT 40/10 A299 RMK A01 T03960095  RH  016%=      5-min Rain = 0
KEN1 192004Z 20011KT 39/10 A299 RMK A01 T03940098  RH  017%=      5-min Rain = 0
KEN1 192005Z 21008KT 39/10 A299 RMK A01 T03940104  RH  018%=      5-min Rain = 0
KEN1 192006Z 23012KT 40/11 A299 RMK A01 T03990107  RH  018%=      5-min Rain = 0
KEN1 192007Z 22012KT 40/11 A299 RMK A01 T04000109  RH  018%=      5-min Rain = 0
KEN1 192008Z 21014KT 40/11 A299 RMK A01 T04000108  RH  017%=      5-min Rain = 0
KEN1 192009Z 22013G18KT 40/11 A299 RMK A01 T03990107  RH  018%=      5-min Rain = 0
KEN1 192010Z 21017KT 40/11 A2989 RMK A01 T03990106  RH  017%=      5-min Rain = 0
KEN1 192011Z 21018KT 40/10 A2989 RMK A01 T03990104  RH  017%=      5-min Rain = 0
KEN1 192012Z 21016KT 40/10 A299 RMK A01 T03960101  RH  017%=      5-min Rain = 0
KEN1 192013Z 21012KT 40/11 A299 RMK A01 T03980106  RH  017%=      5-min Rain = 0
KEN1 192014Z 21009KT 40/10 A299 RMK A01 T04020103  RH  017%=      5-min Rain = 0
KEN1 192015Z 20010KT 40/10 A299 RMK A01 T04020099  RH  016%=      5-min Rain = 0
KEN1 192016Z 19013KT 40/10 A2989 RMK A01 T04010099  RH  016%=      5-min Rain = 0
KEN1 192017Z 18014KT 40/10 A2989 RMK A01 T04020095  RH  016%=      5-min Rain = 0
KEN1 192018Z 19014KT 40/09 A2989 RMK A01 T03990094  RH  016%=      5-min Rain = 0
KEN1 192019Z 19015KT 40/10 A2989 RMK A01 T03960095  RH  016%=      5-min Rain = 0
KEN1 192020Z 21013KT 40/10 A2989 RMK A01 T03950100  RH  017%=      5-min Rain = 0
KEN1 192021Z 23016KT 40/10 A2989 RMK A01 T03990102  RH  017%=      5-min Rain = 0
KEN1 192022Z 22015KT 40/09 A2989 RMK A01 T04030090  RH  015%=      5-min Rain = 0
KEN1 192023Z 22012KT 40/09 A2989 RMK A01 T03980086  RH  015%=      5-min Rain = 0
KEN1 192024Z 21012KT 40/09 A2989 RMK A01 T03950090  RH  016%=      5-min Rain = 0
KEN1 192025Z 20011KT 40/10 A2989 RMK A01 T03970095  RH  016%=      5-min Rain = 0
KEN1 192026Z 19011KT 40/10 A2989 RMK A01 T03970100  RH  017%=      5-min Rain = 0
KEN1 192027Z 21008KT 39/10 A2989 RMK A01 T03940104  RH  018%=      5-min Rain = 0
KEN1 192028Z 22009KT 39/11 A2989 RMK A01 T03940106  RH  018%=      5-min Rain = 0
KEN1 192029Z 21015G23KT 39/10 A2989 RMK A01 T03940102  RH  017%=      5-min Rain = 0
KEN1 192030Z 20017KT 40/09 A2989 RMK A01 T03960094  RH  016%=      5-min Rain = 0
KEN1 192031Z 21014KT 40/10 A2989 RMK A01 T03970095  RH  016%=      5-min Rain = 0
KEN1 192032Z 20016G22KT 40/10 A2989 RMK A01 T03980097  RH  016%=      5-min Rain = 0
KEN1 192033Z 21018KT 40/10 A2989 RMK A01 T03980096  RH  016%=      5-min Rain = 0
KEN1 192034Z 20013KT 40/10 A2989 RMK A01 T03980097  RH  016%=      5-min Rain = 0
KEN1 192035Z 21008KT 39/09 A2989 RMK A01 T03940093  RH  016%=      5-min Rain = 0
KEN1 192036Z 18012KT 40/10 A2989 RMK A01 T03950098  RH  017%=      5-min Rain = 0
KEN1 192037Z 20009KT 40/09 A2989 RMK A01 T03960094  RH  016%=      5-min Rain = 0
KEN1 192038Z 19017G22KT 40/10 A2989 RMK A01 T03960098  RH  017%=      5-min Rain = 0
KEN1 192039Z 20015KT 40/10 A2989 RMK A01 T04000097  RH  016%=      5-min Rain = 0
KEN1 192040Z 19014KT 40/10 A2989 RMK A01 T04000097  RH  016%=      5-min Rain = 0
KEN1 192041Z 20014G19KT 40/10 A2989 RMK A01 T04010099  RH  016%=      5-min Rain = 0
KEN1 192042Z 18010KT 40/10 A2989 RMK A01 T04000100  RH  017%=      5-min Rain = 0
KEN1 192043Z 17015G21KT 40/10 A2989 RMK A01 T04000100  RH  017%=      5-min Rain = 0
KEN1 192044Z 20017G22KT 40/10 A2989 RMK A01 T04040101  RH  016%=      5-min Rain = 0
KEN1 192045Z 19013KT 40/10 A2989 RMK A01 T04030098  RH  016%=      5-min Rain = 0
KEN1 192046Z 17009KT 40/10 A2989 RMK A01 T04000097  RH  016%=      5-min Rain = 0
KEN1 192047Z 17006KT 40/10 A2989 RMK A01 T03970096  RH  016%=      5-min Rain = 0
KEN1 192048Z 19010KT 40/10 A2989 RMK A01 T03960099  RH  017%=      5-min Rain = 0
KEN1 192049Z 19015G20KT 40/11 A2988 RMK A01 T03980105  RH  017%=      5-min Rain = 0
KEN1 192050Z 18019KT 40/11 A2988 RMK A01 T04020106  RH  017%=      5-min Rain = 0
KEN1 192051Z 18017KT 40/10 A2988 RMK A01 T04020103  RH  017%=      5-min Rain = 0
KEN1 192052Z 18016KT 40/10 A2988 RMK A01 T04000104  RH  017%=      5-min Rain = 0
KEN1 192053Z 17013KT 40/10 A2988 RMK A01 T03990104  RH  017%=      5-min Rain = 0
KEN1 192054Z 18013KT 40/10 A2988 RMK A01 T03990103  RH  017%=      5-min Rain = 0
KEN1 192055Z 19015KT 40/10 A2988 RMK A01 T04010104  RH  017%=      5-min Rain = 0
KEN1 192056Z 18013KT 40/10 A2988 RMK A01 T03990104  RH  017%=      5-min Rain = 0
KEN1 192057Z 19009KT 40/10 A2988 RMK A01 T04000103  RH  017%=      5-min Rain = 0
KEN1 192058Z 17010KT 40/10 A2988 RMK A01 T04010103  RH  017%=      5-min Rain = 0
KEN1 192059Z 17013G19KT 40/10 A2988 RMK A01 T04010103  RH  017%=      5-min Rain = 0
KEN1 192100Z 18014KT 40/10 A2988 RMK A01 T04030101  RH  017%=      5-min Rain = 0
KEN1 192101Z 18012KT 41/10 A2988 RMK A01 T04060100  RH  016%=      5-min Rain = 0
KEN1 192102Z 19013KT 41/10 A2988 RMK A01 T04070101  RH  016%=      5-min Rain = 0
KEN1 192103Z 18015KT 41/11 A2988 RMK A01 T04070108  RH  017%=      5-min Rain = 0
KEN1 192104Z 18011KT 41/11 A2988 RMK A01 T04080109  RH  017%=      5-min Rain = 0
KEN1 192105Z 19011KT 41/11 A2988 RMK A01 T04050106  RH  017%=      5-min Rain = 0
KEN1 192106Z 16016G22KT 40/11 A2988 RMK A01 T04030106  RH  017%=      5-min Rain = 0
KEN1 192107Z 16013KT 40/10 A2988 RMK A01 T04040104  RH  017%=      5-min Rain = 0
KEN1 192108Z 18017KT 41/11 A2988 RMK A01 T04070106  RH  017%=      5-min Rain = 0
KEN1 192109Z 20018KT 41/10 A2988 RMK A01 T04100104  RH  016%=      5-min Rain = 0
KEN1 192110Z 18017KT 41/10 A2988 RMK A01 T04060102  RH  016%=      5-min Rain = 0
KEN1 192111Z 17019KT 40/10 A2988 RMK A01 T04040101  RH  016%=      5-min Rain = 0
KEN1 192112Z 17015G21KT 40/10 A2988 RMK A01 T04010100  RH  017%=      5-min Rain = 0
KEN1 192113Z 19018KT 40/10 A2988 RMK A01 T04010101  RH  017%=      5-min Rain = 0
KEN1 192114Z 18016KT 40/10 A2988 RMK A01 T04030098  RH  016%=      5-min Rain = 0
KEN1 192115Z 17014KT 40/10 A2988 RMK A01 T04010097  RH  016%=      5-min Rain = 0
KEN1 192116Z 18015KT 40/10 A2988 RMK A01 T04010098  RH  016%=      5-min Rain = 0
KEN1 192117Z 17012KT 40/10 A2988 RMK A01 T04030096  RH  016%=      5-min Rain = 0
KEN1 192118Z 18015KT 40/10 A2988 RMK A01 T04030098  RH  016%=      5-min Rain = 0
KEN1 192119Z 20013KT 40/10 A2988 RMK A01 T04030098  RH  016%=      5-min Rain = 0
KEN1 192120Z 21015KT 40/10 A2988 RMK A01 T04040099  RH  016%=      5-min Rain = 0
KEN1 192121Z 21015G20KT 41/10 A2988 RMK A01 T04050097  RH  016%=      5-min Rain = 0
KEN1 192122Z 22015KT 40/10 A2988 RMK A01 T04020097  RH  016%=      5-min Rain = 0
KEN1 192123Z 23015KT 40/10 A2988 RMK A01 T04000103  RH  017%=      5-min Rain = 0
KEN1 192124Z 23015KT 40/10 A2988 RMK A01 T04020104  RH  017%=      5-min Rain = 0
KEN1 192125Z 22012KT 40/10 A2988 RMK A01 T04030104  RH  017%=      5-min Rain = 0
KEN1 192126Z 23010KT 40/10 A2988 RMK A01 T04020104  RH  017%=      5-min Rain = 0
KEN1 192127Z 23010KT 40/10 A2988 RMK A01 T04000104  RH  017%=      5-min Rain = 0
KEN1 192128Z 20014G19KT 40/11 A2987 RMK A01 T04010106  RH  017%=      5-min Rain = 0
KEN1 192129Z 20012G18KT 40/11 A2987 RMK A01 T04040105  RH  017%=      5-min Rain = 0
KEN1 192130Z 18014KT 41/11 A2987 RMK A01 T04070106  RH  017%=      5-min Rain = 0
KEN1 192131Z 17012KT 41/10 A2987 RMK A01 T04050101  RH  016%=      5-min Rain = 0
KEN1 192132Z 20011KT 40/10 A2987 RMK A01 T04030100  RH  016%=      5-min Rain = 0
KEN1 192133Z 21011KT 40/10 A2987 RMK A01 T04000099  RH  016%=      5-min Rain = 0
KEN1 192134Z 20015G23KT 40/10 A2987 RMK A01 T03990103  RH  017%=      5-min Rain = 0
KEN1 192135Z 20020G25KT 40/10 A2987 RMK A01 T04020102  RH  017%=      5-min Rain = 0
KEN1 192136Z 19017KT 40/10 A2987 RMK A01 T04040101  RH  016%=      5-min Rain = 0
KEN1 192137Z 19012KT 41/10 A2987 RMK A01 T04050098  RH  016%=      5-min Rain = 0
KEN1 192138Z 21011KT 41/10 A2987 RMK A01 T04060101  RH  016%=      5-min Rain = 0
KEN1 192139Z 21015KT 41/10 A2987 RMK A01 T04080102  RH  016%=      5-min Rain = 0
KEN1 192140Z 21015KT 41/10 A2987 RMK A01 T04050100  RH  016%=      5-min Rain = 0
KEN1 192141Z 20014KT 40/10 A2987 RMK A01 T04030100  RH  016%=      5-min Rain = 0
KEN1 192142Z 20010G15KT 40/10 A2987 RMK A01 T04040099  RH  016%=      5-min Rain = 0
KEN1 192143Z 22007KT 40/10 A2987 RMK A01 T04030099  RH  016%=      5-min Rain = 0
KEN1 192144Z 20006KT 40/10 A2987 RMK A01 T04010100  RH  017%=      5-min Rain = 0
KEN1 192145Z 19008KT 40/10 A2987 RMK A01 T04030099  RH  016%=      5-min Rain = 0
KEN1 192146Z 19008KT 40/10 A2987 RMK A01 T04040096  RH  016%=      5-min Rain = 0
KEN1 192147Z 23013G18KT 41/10 A2987 RMK A01 T04060095  RH  016%=      5-min Rain = 0
KEN1 192148Z 23014KT 41/09 A2987 RMK A01 T04080088  RH  015%=      5-min Rain = 0
KEN1 192149Z 22014G21KT 40/09 A2987 RMK A01 T04040087  RH  015%=      5-min Rain = 0
KEN1 192150Z 20020G25KT 40/10 A2987 RMK A01 T04040095  RH  016%=      5-min Rain = 0
KEN1 192151Z 19016KT 40/10 A2987 RMK A01 T04040096  RH  016%=      5-min Rain = 0
KEN1 192152Z 20018KT 40/10 A2986 RMK A01 T04040096  RH  016%=      5-min Rain = 0
KEN1 192153Z 19019KT 40/10 A2986 RMK A01 T04040097  RH  016%=      5-min Rain = 0
KEN1 192154Z 19015G20KT 41/10 A2986 RMK A01 T04060098  RH  016%=      5-min Rain = 0
KEN1 192155Z 19016KT 41/10 A2986 RMK A01 T04090097  RH  016%=      5-min Rain = 0
KEN1 192156Z 18015KT 41/10 A2987 RMK A01 T04100098  RH  016%=      5-min Rain = 0
KEN1 192157Z 18014KT 41/10 A2987 RMK A01 T04090095  RH  015%=      5-min Rain = 0
KEN1 192158Z 19011KT 41/09 A2986 RMK A01 T04060093  RH  015%=      5-min Rain = 0
KEN1 192159Z 20009KT 40/09 A2986 RMK A01 T04040093  RH  015%=      5-min Rain = 0
KEN1 192200Z 18006KT 41/09 A2986 RMK A01 T04050093  RH  016%=      5-min Rain = 0
KEN1 192201Z 18009KT 41/09 A2986 RMK A01 T04070094  RH  015%=      5-min Rain = 0
KEN1 192202Z 16013KT 41/09 A2986 RMK A01 T04070090  RH  015%=      5-min Rain = 0
KEN1 192203Z 17011KT 40/09 A2986 RMK A01 T04040090  RH  015%=      5-min Rain = 0
KEN1 192204Z 18010KT 40/09 A2986 RMK A01 T04030091  RH  015%=      5-min Rain = 0
KEN1 192205Z 19016KT 40/09 A2986 RMK A01 T04030093  RH  016%=      5-min Rain = 0
KEN1 192206Z 20017KT 40/09 A2986 RMK A01 T04040094  RH  016%=      5-min Rain = 0
KEN1 192207Z 21016KT 40/10 A2986 RMK A01 T04030095  RH  016%=      5-min Rain = 0
KEN1 192208Z 21014KT 40/10 A2986 RMK A01 T04040095  RH  016%=      5-min Rain = 0
KEN1 192209Z 21013KT 40/09 A2986 RMK A01 T04040093  RH  016%=      5-min Rain = 0
KEN1 192210Z 19009KT 40/09 A2986 RMK A01 T04030094  RH  016%=      5-min Rain = 0
KEN1 192211Z 21007KT 40/10 A2986 RMK A01 T04010097  RH  016%=      5-min Rain = 0
KEN1 192212Z 21013KT 40/10 A2986 RMK A01 T04040100  RH  016%=      5-min Rain = 0
KEN1 192213Z 22012KT 41/10 A2986 RMK A01 T04050097  RH  016%=      5-min Rain = 0
KEN1 192214Z 24012KT 40/09 A2986 RMK A01 T03990094  RH  016%=      5-min Rain = 0
KEN1 192215Z 23008KT 39/09 A2986 RMK A01 T03940094  RH  016%=      5-min Rain = 0
KEN1 192216Z 21008KT 39/10 A2986 RMK A01 T03920095  RH  017%=      5-min Rain = 0
KEN1 192217Z 20010KT 39/09 A2986 RMK A01 T03930093  RH  016%=      5-min Rain = 0
KEN1 192218Z 20009KT 40/09 A2986 RMK A01 T03960094  RH  016%=      5-min Rain = 0
KEN1 192219Z 20008KT 40/10 A2986 RMK A01 T04030098  RH  016%=      5-min Rain = 0
KEN1 192220Z 21010KT 41/10 A2986 RMK A01 T04050096  RH  016%=      5-min Rain = 0
KEN1 192221Z 19013G19KT 40/09 A2985 RMK A01 T04030094  RH  016%=      5-min Rain = 0
KEN1 192222Z 20013G18KT 40/09 A2986 RMK A01 T04030093  RH  016%=      5-min Rain = 0
KEN1 192223Z 20012KT 40/09 A2986 RMK A01 T04040094  RH  016%=      5-min Rain = 0
KEN1 192224Z 20014KT 41/10 A2986 RMK A01 T04080095  RH  015%=      5-min Rain = 0
KEN1 192225Z 21013KT 41/09 A2986 RMK A01 T04080094  RH  015%=      5-min Rain = 0
KEN1 192226Z 22013KT 41/10 A2986 RMK A01 T04080097  RH  016%=      5-min Rain = 0
KEN1 192227Z 21011KT 41/09 A2986 RMK A01 T04060094  RH  015%=      5-min Rain = 0
KEN1 192228Z 20009KT 40/09 A2986 RMK A01 T04030093  RH  016%=      5-min Rain = 0
KEN1 192229Z 23008G15KT 40/09 A2985 RMK A01 T04030093  RH  016%=      5-min Rain = 0
KEN1 192230Z 21014KT 40/09 A2986 RMK A01 T04030093  RH  016%=      5-min Rain = 0
KEN1 192231Z 19012KT 40/09 A2986 RMK A01 T04000093  RH  016%=      5-min Rain = 0
KEN1 192232Z 18012KT 40/09 A2986 RMK A01 T03990091  RH  016%=      5-min Rain = 0
KEN1 192233Z 17016KT 40/09 A2986 RMK A01 T03970091  RH  016%=      5-min Rain = 0
KEN1 192234Z 18015KT 39/09 A2986 RMK A01 T03930091  RH  016%=      5-min Rain = 0
KEN1 192235Z 19015KT 39/09 A2986 RMK A01 T03910092  RH  016%=      5-min Rain = 0
KEN1 192236Z 20017KT 39/09 A2986 RMK A01 T03920093  RH  017%=      5-min Rain = 0
KEN1 192237Z 22014KT 40/09 A2986 RMK A01 T03980093  RH  016%=      5-min Rain = 0
KEN1 192238Z 21015KT 40/09 A2986 RMK A01 T03990093  RH  016%=      5-min Rain = 0
KEN1 192239Z 20020KT 40/09 A2986 RMK A01 T04000092  RH  016%=      5-min Rain = 0
KEN1 192240Z 19016G22KT 40/09 A2986 RMK A01 T04010091  RH  016%=      5-min Rain = 0
KEN1 192241Z 19017KT 40/09 A2986 RMK A01 T04020091  RH  016%=      5-min Rain = 0
KEN1 192242Z 19013KT 40/09 A2986 RMK A01 T04020090  RH  015%=      5-min Rain = 0
KEN1 192243Z 20014KT 40/09 A2986 RMK A01 T03980088  RH  016%=      5-min Rain = 0
KEN1 192244Z 21014KT 39/09 A2986 RMK A01 T03940089  RH  016%=      5-min Rain = 0
KEN1 192245Z 22011KT 39/09 A2986 RMK A01 T03910087  RH  016%=      5-min Rain = 0
KEN1 192246Z 22011KT 39/09 A2986 RMK A01 T03880086  RH  016%=      5-min Rain = 0
KEN1 192247Z 21009KT 39/09 A2986 RMK A01 T03860087  RH  016%=      5-min Rain = 0
KEN1 192248Z 21008KT 39/09 A2986 RMK A01 T03860088  RH  017%=      5-min Rain = 0
KEN1 192249Z 20011KT 39/09 A2986 RMK A01 T03860088  RH  017%=      5-min Rain = 0
KEN1 192250Z 19013KT 39/09 A2986 RMK A01 T03880089  RH  016%=      5-min Rain = 0
KEN1 192251Z 19012KT 39/09 A2986 RMK A01 T03910089  RH  016%=      5-min Rain = 0
KEN1 192252Z 18014KT 39/09 A2986 RMK A01 T03920090  RH  016%=      5-min Rain = 0
KEN1 192253Z 19013KT 39/09 A2986 RMK A01 T03910090  RH  016%=      5-min Rain = 0
KEN1 192254Z 18014G19KT 39/09 A2986 RMK A01 T03900090  RH  016%=      5-min Rain = 0
KEN1 192255Z 18010KT 39/09 A2986 RMK A01 T03900089  RH  016%=      5-min Rain = 0
KEN1 192256Z 20008KT 39/09 A2986 RMK A01 T03910090  RH  016%=      5-min Rain = 0
KEN1 192257Z 20010KT 39/09 A2986 RMK A01 T03940091  RH  016%=      5-min Rain = 0
KEN1 192258Z 20010KT 39/09 A2986 RMK A01 T03940091  RH  016%=      5-min Rain = 0
KEN1 192259Z 21010KT 39/09 A2986 RMK A01 T03940091  RH  016%=      5-min Rain = 0
KEN1 192300Z 20010KT 39/09 A2986 RMK A01 T03920090  RH  016%=      5-min Rain = 0
KEN1 192301Z 21009KT 39/09 A2986 RMK A01 T03910091  RH  016%=      5-min Rain = 0
KEN1 192302Z 23009KT 39/09 A2986 RMK A01 T03940092  RH  016%=      5-min Rain = 0
KEN1 192303Z 23008KT 40/09 A2986 RMK A01 T03970093  RH  016%=      5-min Rain = 0
KEN1 192304Z 21010KT 40/09 A2985 RMK A01 T04000093  RH  016%=      5-min Rain = 0
KEN1 192305Z 22006G11KT 40/09 A2985 RMK A01 T04010092  RH  016%=      5-min Rain = 0
KEN1 192306Z 25006KT 40/09 A2985 RMK A01 T04010090  RH  015%=      5-min Rain = 0
KEN1 192307Z 24008KT 40/09 A2985 RMK A01 T03990092  RH  016%=      5-min Rain = 0
KEN1 192308Z 24011KT 40/09 A2985 RMK A01 T04020094  RH  016%=      5-min Rain = 0
KEN1 192309Z 23012KT 41/10 A2985 RMK A01 T04050096  RH  016%=      5-min Rain = 0
KEN1 192310Z 24013KT 41/09 A2985 RMK A01 T04080093  RH  015%=      5-min Rain = 0
KEN1 192311Z 24013KT 41/09 A2986 RMK A01 T04070090  RH  015%=      5-min Rain = 0
KEN1 192312Z 23013KT 41/09 A2985 RMK A01 T04050090  RH  015%=      5-min Rain = 0
KEN1 192313Z 23013KT 41/09 A2985 RMK A01 T04060091  RH  015%=      5-min Rain = 0
KEN1 192314Z 25014KT 41/09 A2985 RMK A01 T04060091  RH  015%=      5-min Rain = 0
KEN1 192315Z 25010KT 41/09 A2985 RMK A01 T04060090  RH  015%=      5-min Rain = 0
KEN1 192316Z 23009KT 41/09 A2985 RMK A01 T04050090  RH  015%=      5-min Rain = 0
KEN1 192317Z 23010KT 40/09 A2985 RMK A01 T04030089  RH  015%=      5-min Rain = 0
KEN1 192318Z 22016KT 40/09 A2985 RMK A01 T04040092  RH  015%=      5-min Rain = 0
KEN1 192319Z 22017KT 41/09 A2985 RMK A01 T04060091  RH  015%=      5-min Rain = 0
KEN1 192320Z 22015KT 40/09 A2985 RMK A01 T04040091  RH  015%=      5-min Rain = 0
KEN1 192321Z 22010KT 40/09 A2985 RMK A01 T04020090  RH  015%=      5-min Rain = 0
KEN1 192322Z 24009KT 40/09 A2985 RMK A01 T04000090  RH  016%=      5-min Rain = 0
KEN1 192323Z 23010KT 40/09 A2985 RMK A01 T04010092  RH  016%=      5-min Rain = 0
KEN1 192324Z 23012KT 40/09 A2985 RMK A01 T04030091  RH  015%=      5-min Rain = 0
KEN1 192325Z 23012KT 40/09 A2985 RMK A01 T04030091  RH  015%=      5-min Rain = 0
KEN1 192326Z 22014KT 40/09 A2985 RMK A01 T04030091  RH  015%=      5-min Rain = 0
KEN1 192327Z 21014KT 40/09 A2985 RMK A01 T04030093  RH  016%=      5-min Rain = 0
KEN1 192328Z 20014G20KT 40/09 A2985 RMK A01 T04000092  RH  016%=      5-min Rain = 0
KEN1 192329Z 20013KT 40/09 A2986 RMK A01 T03990092  RH  016%=      5-min Rain = 0
KEN1 192330Z 20013KT 40/09 A2986 RMK A01 T03990093  RH  016%=      5-min Rain = 0
KEN1 192331Z 18014KT 40/09 A2986 RMK A01 T04000092  RH  016%=      5-min Rain = 0
KEN1 192332Z 18014G19KT 40/09 A2986 RMK A01 T03980090  RH  016%=      5-min Rain = 0
KEN1 192333Z 18020KT 39/10 A2986 RMK A01 T03940103  RH  018%=      5-min Rain = 0
KEN1 192334Z 17024G29KT 39/11 A2986 RMK A01 T03860111  RH  019%=      5-min Rain = 0
KEN1 192335Z 17025KT 38/11 A2986 RMK A01 T03780111  RH  020%=      5-min Rain = 0
KEN1 192336Z 18021KT 38/11 A2986 RMK A01 T03750111  RH  020%=      5-min Rain = 0
KEN1 192337Z 17017KT 37/11 A2986 RMK A01 T03740111  RH  021%=      5-min Rain = 0
KEN1 192338Z 17020KT 38/11 A2986 RMK A01 T03760111  RH  020%=      5-min Rain = 0
KEN1 192339Z 17020G25KT 38/11 A2986 RMK A01 T03770111  RH  020%=      5-min Rain = 0
KEN1 192340Z 17020G28KT 38/11 A2986 RMK A01 T03770112  RH  020%=      5-min Rain = 0
KEN1 192341Z 17023KT 38/11 A2986 RMK A01 T03760113  RH  021%=      5-min Rain = 0
KEN1 192342Z 16023G29KT 37/12 A2986 RMK A01 T03730115  RH  021%=      5-min Rain = 0
KEN1 192343Z 16024KT 37/12 A2986 RMK A01 T03700115  RH  022%=      5-min Rain = 0
KEN1 192344Z 16022KT 37/12 A2986 RMK A01 T03670116  RH  022%=      5-min Rain = 0
KEN1 192345Z 16020KT 37/12 A2986 RMK A01 T03660116  RH  022%=      5-min Rain = 0
KEN1 192346Z 16021KT 37/12 A2986 RMK A01 T03660117  RH  022%=      5-min Rain = 0
KEN1 192347Z 16020G25KT 36/12 A2986 RMK A01 T03640116  RH  022%=      5-min Rain = 0
KEN1 192348Z 17022G27KT 37/12 A2986 RMK A01 T03650115  RH  022%=      5-min Rain = 0
KEN1 192349Z 16022KT 37/11 A2986 RMK A01 T03650114  RH  022%=      5-min Rain = 0
KEN1 192350Z 16023G28KT 37/11 A2986 RMK A01 T03650114  RH  022%=      5-min Rain = 0
KEN1 192351Z 16020G26KT 37/12 A2986 RMK A01 T03650115  RH  022%=      5-min Rain = 0
KEN1 192352Z 16020G25KT 37/12 A2986 RMK A01 T03660115  RH  022%=      5-min Rain = 0
KEN1 192353Z 17025KT 37/12 A2986 RMK A01 T03660115  RH  022%=      5-min Rain = 0
KEN1 192354Z 16021KT 37/12 A2986 RMK A01 T03660116  RH  022%=      5-min Rain = 0
KEN1 192355Z 16019G24KT 37/12 A2986 RMK A01 T03670121  RH  023%=      5-min Rain = 0
KEN1 192356Z 16018KT 37/12 A2986 RMK A01 T03690120  RH  022%=      5-min Rain = 0
KEN1 192357Z 15020KT 37/12 A2986 RMK A01 T03700123  RH  023%=      5-min Rain = 0
KEN1 192358Z 15020G25KT 37/12 A2986 RMK A01 T03690124  RH  023%=      5-min Rain = 0
KEN1 192359Z 16021G26KT 37/12 A2986 RMK A01 T03680123  RH  023%=      5-min Rain = 0
KEN1 200000Z 16023G28KT 37/12 A2986 RMK A01 T03670121  RH  023%=      5-min Rain = 0
KEN1 200001Z 16021KT 37/12 A2986 RMK A01 T03650119  RH  023%=      5-min Rain = 0
KEN1 200002Z 15022KT 36/12 A2986 RMK A01 T03640117  RH  023%=      5-min Rain = 0
KEN1 200003Z 16021KT 36/12 A2986 RMK A01 T03640116  RH  022%=      5-min Rain = 0
KEN1 200004Z 15023KT 36/12 A2986 RMK A01 T03630115  RH  022%=      5-min Rain = 0
KEN1 200005Z 15021KT 36/11 A2986 RMK A01 T03630114  RH  022%=      5-min Rain = 0
KEN1 200006Z 16022KT 36/11 A2986 RMK A01 T03630114  RH  022%=      5-min Rain = 0
KEN1 200007Z 15019KT 36/11 A2987 RMK A01 T03640114  RH  022%=      5-min Rain = 0
KEN1 200008Z 15019KT 36/12 A2986 RMK A01 T03640115  RH  022%=      5-min Rain = 0
KEN1 200009Z 15017KT 37/12 A2987 RMK A01 T03650116  RH  022%=      5-min Rain = 0
KEN1 200010Z 15020KT 37/12 A2987 RMK A01 T03660117  RH  022%=      5-min Rain = 0
KEN1 200011Z 16019KT 37/12 A2987 RMK A01 T03660118  RH  022%=      5-min Rain = 0
KEN1 200012Z 16017KT 37/12 A2987 RMK A01 T03660118  RH  022%=      5-min Rain = 0
KEN1 200013Z 16019G25KT 37/12 A2987 RMK A01 T03670117  RH  022%=      5-min Rain = 0
KEN1 200014Z 17024KT 37/11 A2987 RMK A01 T03670113  RH  022%=      5-min Rain = 0
KEN1 200015Z 16022KT 37/11 A2987 RMK A01 T03660114  RH  022%=      5-min Rain = 0
KEN1 200016Z 17021G26KT 37/11 A2987 RMK A01 T03650113  RH  022%=      5-min Rain = 0
KEN1 200017Z 16019G26KT 37/11 A2987 RMK A01 T03650113  RH  022%=      5-min Rain = 0
KEN1 200018Z 17016G21KT 37/11 A2987 RMK A01 T03650114  RH  022%=      5-min Rain = 0
KEN1 200019Z 16017KT 36/12 A2987 RMK A01 T03640115  RH  022%=      5-min Rain = 0
KEN1 200020Z 16021G26KT 36/12 A2987 RMK A01 T03630115  RH  022%=      5-min Rain = 0
KEN1 200021Z 17020G26KT 36/11 A2987 RMK A01 T03610113  RH  022%=      5-min Rain = 0
KEN1 200022Z 17020G25KT 36/11 A2987 RMK A01 T03610112  RH  022%=      5-min Rain = 0
KEN1 200023Z 17022G27KT 36/11 A2987 RMK A01 T03590112  RH  022%=      5-min Rain = 0
KEN1 200024Z 17020KT 36/11 A2987 RMK A01 T03590112  RH  023%=      5-min Rain = 0
KEN1 200025Z 18019KT 36/11 A2987 RMK A01 T03580112  RH  023%=      5-min Rain = 0
KEN1 200026Z 17021KT 36/11 A2987 RMK A01 T03580112  RH  023%=      5-min Rain = 0
KEN1 200027Z 18022KT 36/11 A2987 RMK A01 T03570113  RH  023%=      5-min Rain = 0
KEN1 200028Z 17020KT 36/11 A2987 RMK A01 T03550113  RH  023%=      5-min Rain = 0
KEN1 200029Z 18019KT 36/11 A2987 RMK A01 T03550114  RH  023%=      5-min Rain = 0
KEN1 200030Z 18019G24KT 35/11 A2987 RMK A01 T03540114  RH  023%=      5-min Rain = 0
KEN1 200031Z 18021KT 36/11 A2987 RMK A01 T03550113  RH  023%=      5-min Rain = 0
KEN1 200032Z 18019KT 36/11 A2988 RMK A01 T03550113  RH  023%=      5-min Rain = 0
KEN1 200033Z 18018KT 35/11 A2988 RMK A01 T03540113  RH  023%=      5-min Rain = 0
KEN1 200034Z 18018KT 35/11 A2988 RMK A01 T03540113  RH  023%=      5-min Rain = 0
KEN1 200035Z 18019KT 35/11 A2988 RMK A01 T03540113  RH  023%=      5-min Rain = 0
KEN1 200036Z 18016KT 35/11 A2988 RMK A01 T03530113  RH  023%=      5-min Rain = 0
KEN1 200037Z 18015KT 35/11 A2988 RMK A01 T03530113  RH  023%=      5-min Rain = 0
KEN1 200038Z 18017KT 35/11 A2988 RMK A01 T03520112  RH  023%=      5-min Rain = 0
KEN1 200039Z 18019KT 35/11 A2988 RMK A01 T03520112  RH  023%=      5-min Rain = 0
KEN1 200040Z 18016KT 35/11 A2988 RMK A01 T03510112  RH  023%=      5-min Rain = 0
KEN1 200041Z 18014KT 35/11 A2988 RMK A01 T03510112  RH  023%=      5-min Rain = 0
KEN1 200042Z 18014G19KT 35/11 A2988 RMK A01 T03510113  RH  024%=      5-min Rain = 0
KEN1 200043Z 18017KT 35/11 A2988 RMK A01 T03510113  RH  024%=      5-min Rain = 0
KEN1 200044Z 18012KT 35/11 A2989 RMK A01 T03500112  RH  024%=      5-min Rain = 0
KEN1 200045Z 18013KT 35/11 A2989 RMK A01 T03500112  RH  024%=      5-min Rain = 0
KEN1 200046Z 17014KT 35/11 A2988 RMK A01 T03500111  RH  023%=      5-min Rain = 0
KEN1 200047Z 17014KT 35/11 A2989 RMK A01 T03500110  RH  023%=      5-min Rain = 0
KEN1 200048Z 17014KT 35/11 A2989 RMK A01 T03500109  RH  023%=      5-min Rain = 0
KEN1 200049Z 17016KT 35/11 A2989 RMK A01 T03490108  RH  023%=      5-min Rain = 0
KEN1 200050Z 17016KT 35/11 A2989 RMK A01 T03490108  RH  023%=      5-min Rain = 0
KEN1 200051Z 17017KT 35/11 A2989 RMK A01 T03490108  RH  023%=      5-min Rain = 0
KEN1 200052Z 17018KT 35/11 A2989 RMK A01 T03490108  RH  023%=      5-min Rain = 0
KEN1 200053Z 17018KT 35/11 A2989 RMK A01 T03490108  RH  023%=      5-min Rain = 0
KEN1 200054Z 18016G22KT 35/11 A2989 RMK A01 T03480109  RH  024%=      5-min Rain = 0
KEN1 200055Z 17013KT 35/11 A2989 RMK A01 T03470110  RH  024%=      5-min Rain = 0
KEN1 200056Z 17015KT 35/11 A2989 RMK A01 T03470112  RH  024%=      5-min Rain = 0
KEN1 200057Z 16015KT 35/11 A2989 RMK A01 T03470112  RH  024%=      5-min Rain = 0
KEN1 200058Z 16016KT 35/11 A2989 RMK A01 T03470112  RH  024%=      5-min Rain = 0
KEN1 200059Z 16013KT 35/11 A2989 RMK A01 T03450112  RH  024%=      5-min Rain = 0
KEN1 200100Z 16015G22KT 34/11 A2989 RMK A01 T03440113  RH  024%=      5-min Rain = 0
KEN1 200101Z 16018KT 35/11 A2989 RMK A01 T03450111  RH  024%=      5-min Rain = 0
KEN1 200102Z 16017KT 34/11 A2989 RMK A01 T03440110  RH  024%=      5-min Rain = 0
KEN1 200103Z 16016KT 34/11 A2989 RMK A01 T03440109  RH  024%=      5-min Rain = 0
KEN1 200104Z 17016KT 34/11 A2989 RMK A01 T03440110  RH  024%=      5-min Rain = 0
KEN1 200105Z 17018KT 34/11 A2989 RMK A01 T03440107  RH  024%=      5-min Rain = 0
KEN1 200106Z 17017KT 34/10 A2989 RMK A01 T03440101  RH  023%=      5-min Rain = 0
KEN1 200107Z 18014KT 34/10 A2989 RMK A01 T03440100  RH  023%=      5-min Rain = 0
KEN1 200108Z 18017KT 35/10 A2989 RMK A01 T03450099  RH  022%=      5-min Rain = 0
KEN1 200109Z 18017KT 35/10 A2989 RMK A01 T03450098  RH  022%=      5-min Rain = 0
KEN1 200110Z 17017KT 34/10 A299 RMK A01 T03440097  RH  022%=      5-min Rain = 0
KEN1 200111Z 18019KT 34/10 A2989 RMK A01 T03440096  RH  022%=      5-min Rain = 0
KEN1 200112Z 18019KT 34/10 A2989 RMK A01 T03430096  RH  022%=      5-min Rain = 0
KEN1 200113Z 18017KT 34/10 A2989 RMK A01 T03420097  RH  022%=      5-min Rain = 0
KEN1 200114Z 17017KT 34/10 A2989 RMK A01 T03420097  RH  022%=      5-min Rain = 0
KEN1 200115Z 17017KT 34/10 A2989 RMK A01 T03410098  RH  023%=      5-min Rain = 0
KEN1 200116Z 17016KT 34/10 A299 RMK A01 T03420098  RH  023%=      5-min Rain = 0
KEN1 200117Z 17018KT 34/10 A299 RMK A01 T03420098  RH  023%=      5-min Rain = 0
KEN1 200118Z 17016KT 34/10 A299 RMK A01 T03420098  RH  022%=      5-min Rain = 0
KEN1 200119Z 17014KT 34/10 A299 RMK A01 T03420098  RH  023%=      5-min Rain = 0
KEN1 200120Z 17015KT 34/10 A299 RMK A01 T03420098  RH  022%=      5-min Rain = 0
KEN1 200121Z 17014KT 34/10 A2989 RMK A01 T03420098  RH  022%=      5-min Rain = 0
KEN1 200122Z 17014KT 34/10 A2989 RMK A01 T03420099  RH  023%=      5-min Rain = 0
KEN1 200123Z 16016KT 34/10 A299 RMK A01 T03420099  RH  023%=      5-min Rain = 0
KEN1 200124Z 16015KT 34/10 A299 RMK A01 T03430098  RH  022%=      5-min Rain = 0
KEN1 200125Z 17017KT 34/10 A299 RMK A01 T03430098  RH  022%=      5-min Rain = 0
KEN1 200126Z 17013KT 34/10 A299 RMK A01 T03430099  RH  022%=      5-min Rain = 0
KEN1 200127Z 16013KT 34/10 A299 RMK A01 T03430099  RH  023%=      5-min Rain = 0
KEN1 200128Z 16013KT 34/10 A299 RMK A01 T03430099  RH  023%=      5-min Rain = 0
KEN1 200129Z 16014KT 34/10 A299 RMK A01 T03430099  RH  023%=      5-min Rain = 0
KEN1 200130Z 17015G20KT 34/10 A299 RMK A01 T03430099  RH  023%=      5-min Rain = 0
KEN1 200131Z 17015KT 34/10 A2989 RMK A01 T03430099  RH  023%=      5-min Rain = 0
KEN1 200132Z 17016KT 34/10 A2989 RMK A01 T03430099  RH  023%=      5-min Rain = 0
KEN1 200133Z 17015G22KT 34/10 A2989 RMK A01 T03430099  RH  023%=      5-min Rain = 0
KEN1 200134Z 17016G21KT 34/10 A299 RMK A01 T03430099  RH  022%=      5-min Rain = 0
KEN1 200135Z 17015KT 34/10 A299 RMK A01 T03430098  RH  022%=      5-min Rain = 0
KEN1 200136Z 17016KT 34/10 A299 RMK A01 T03430099  RH  023%=      5-min Rain = 0
KEN1 200137Z 17016KT 34/10 A299 RMK A01 T03430099  RH  023%=      5-min Rain = 0
KEN1 200138Z 17017KT 34/10 A299 RMK A01 T03430099  RH  023%=      5-min Rain = 0
KEN1 200139Z 17016KT 34/10 A299 RMK A01 T03420099  RH  023%=      5-min Rain = 0
KEN1 200140Z 17015KT 34/10 A299 RMK A01 T03420099  RH  023%=      5-min Rain = 0
KEN1 200141Z 17014KT 34/10 A299 RMK A01 T03420099  RH  023%=      5-min Rain = 0
KEN1 200142Z 18016KT 34/10 A299 RMK A01 T03410099  RH  023%=      5-min Rain = 0
KEN1 200143Z 17016KT 34/10 A299 RMK A01 T03400099  RH  023%=      5-min Rain = 0
KEN1 200144Z 17020G26KT 34/10 A299 RMK A01 T03400098  RH  023%=      5-min Rain = 0
KEN1 200145Z 17022G27KT 34/10 A299 RMK A01 T03390097  RH  023%=      5-min Rain = 0
KEN1 200146Z 17020KT 34/10 A299 RMK A01 T03390097  RH  023%=      5-min Rain = 0
KEN1 200147Z 17021KT 34/10 A299 RMK A01 T03390097  RH  023%=      5-min Rain = 0
KEN1 200148Z 17022KT 34/10 A299 RMK A01 T03370096  RH  023%=      5-min Rain = 0
KEN1 200149Z 17019KT 34/10 A299 RMK A01 T03360096  RH  023%=      5-min Rain = 0
KEN1 200150Z 16022KT 34/10 A299 RMK A01 T03350097  RH  023%=      5-min Rain = 0
KEN1 200151Z 17021KT 33/10 A299 RMK A01 T03340096  RH  023%=      5-min Rain = 0
KEN1 200152Z 17018KT 33/10 A299 RMK A01 T03330095  RH  023%=      5-min Rain = 0
KEN1 200153Z 17018G23KT 33/10 A299 RMK A01 T03330096  RH  023%=      5-min Rain = 0
KEN1 200154Z 17022KT 33/10 A299 RMK A01 T03320095  RH  023%=      5-min Rain = 0
KEN1 200155Z 17019KT 33/09 A299 RMK A01 T03310094  RH  023%=      5-min Rain = 0
KEN1 200156Z 16019KT 33/09 A299 RMK A01 T03300094  RH  023%=      5-min Rain = 0
KEN1 200157Z 17020KT 33/10 A299 RMK A01 T03300095  RH  024%=      5-min Rain = 0
KEN1 200158Z 17019G24KT 33/09 A299 RMK A01 T03290094  RH  024%=      5-min Rain = 0
KEN1 200159Z 17018KT 33/10 A299 RMK A01 T03290095  RH  024%=      5-min Rain = 0
KEN1 200200Z 17019KT 33/10 A299 RMK A01 T03280095  RH  024%=      5-min Rain = 0
KEN1 200201Z 17017G22KT 33/10 A299 RMK A01 T03270095  RH  024%=      5-min Rain = 0
KEN1 200202Z 17021KT 33/10 A299 RMK A01 T03260095  RH  024%=      5-min Rain = 0
KEN1 200203Z 17019KT 33/10 A299 RMK A01 T03250096  RH  024%=      5-min Rain = 0
KEN1 200204Z 17016KT 32/10 A299 RMK A01 T03240096  RH  024%=      5-min Rain = 0
KEN1 200205Z 17019KT 32/10 A299 RMK A01 T03240096  RH  025%=      5-min Rain = 0
KEN1 200206Z 17020G25KT 32/10 A299 RMK A01 T03240097  RH  025%=      5-min Rain = 0
KEN1 200207Z 17019KT 32/10 A299 RMK A01 T03230097  RH  025%=      5-min Rain = 0
KEN1 200208Z 17015KT 32/10 A299 RMK A01 T03230097  RH  025%=      5-min Rain = 0
KEN1 200209Z 17017KT 32/10 A299 RMK A01 T03220098  RH  025%=      5-min Rain = 0
KEN1 200210Z 17016G21KT 32/10 A299 RMK A01 T03210098  RH  025%=      5-min Rain = 0
KEN1 200211Z 17017KT 32/10 A299 RMK A01 T03200098  RH  025%=      5-min Rain = 0
KEN1 200212Z 17018KT 32/10 A299 RMK A01 T03200099  RH  026%=      5-min Rain = 0
KEN1 200213Z 17016G21KT 32/10 A299 RMK A01 T03200099  RH  026%=      5-min Rain = 0
KEN1 200214Z 17019KT 32/10 A299 RMK A01 T03200099  RH  026%=      5-min Rain = 0
KEN1 200215Z 17020KT 32/10 A299 RMK A01 T03190100  RH  026%=      5-min Rain = 0
KEN1 200216Z 17019G24KT 32/10 A299 RMK A01 T03190100  RH  026%=      5-min Rain = 0
KEN1 200217Z 17020KT 32/10 A299 RMK A01 T03190101  RH  026%=      5-min Rain = 0
KEN1 200218Z 17016G22KT 32/10 A299 RMK A01 T03190101  RH  026%=      5-min Rain = 0
KEN1 200219Z 17017KT 32/10 A299 RMK A01 T03180101  RH  026%=      5-min Rain = 0
KEN1 200220Z 17017KT 32/10 A299 RMK A01 T03170101  RH  026%=      5-min Rain = 0
KEN1 200221Z 17018KT 32/10 A299 RMK A01 T03170101  RH  026%=      5-min Rain = 0
KEN1 200222Z 17017KT 32/10 A299 RMK A01 T03170102  RH  027%=      5-min Rain = 0
KEN1 200223Z 17017KT 32/10 A2991 RMK A01 T03160102  RH  027%=      5-min Rain = 0
KEN1 200224Z 17017G22KT 32/10 A2991 RMK A01 T03160103  RH  027%=      5-min Rain = 0
KEN1 200225Z 17018KT 32/10 A2991 RMK A01 T03150103  RH  027%=      5-min Rain = 0
KEN1 200226Z 17015KT 32/10 A2991 RMK A01 T03150103  RH  027%=      5-min Rain = 0
KEN1 200227Z 17016KT 31/10 A2991 RMK A01 T03140103  RH  027%=      5-min Rain = 0
KEN1 200228Z 17015KT 31/10 A2991 RMK A01 T03140103  RH  027%=      5-min Rain = 0
KEN1 200229Z 17016KT 31/10 A2991 RMK A01 T03140103  RH  027%=      5-min Rain = 0
KEN1 200230Z 17015KT 31/10 A2991 RMK A01 T03130104  RH  027%=      5-min Rain = 0
KEN1 200231Z 17016KT 31/10 A2991 RMK A01 T03130104  RH  028%=      5-min Rain = 0
KEN1 200232Z 17014KT 31/10 A2991 RMK A01 T03120103  RH  028%=      5-min Rain = 0
KEN1 200233Z 17013KT 31/10 A2991 RMK A01 T03120103  RH  028%=      5-min Rain = 0
KEN1 200234Z 18013KT 31/10 A2991 RMK A01 T03110104  RH  028%=      5-min Rain = 0
KEN1 200235Z 18013KT 31/10 A2991 RMK A01 T03100104  RH  028%=      5-min Rain = 0
KEN1 200236Z 18012KT 31/10 A2991 RMK A01 T03090103  RH  028%=      5-min Rain = 0
KEN1 200237Z 18012KT 31/10 A2991 RMK A01 T03090103  RH  028%=      5-min Rain = 0
KEN1 200238Z 17012KT 31/10 A2991 RMK A01 T03090104  RH  028%=      5-min Rain = 0
KEN1 200239Z 17012KT 31/10 A2991 RMK A01 T03080103  RH  028%=      5-min Rain = 0
KEN1 200240Z 18011KT 31/10 A2991 RMK A01 T03080103  RH  028%=      5-min Rain = 0
KEN1 200241Z 17011KT 31/10 A2991 RMK A01 T03070104  RH  028%=      5-min Rain = 0
KEN1 200242Z 17011KT 31/10 A2991 RMK A01 T03060103  RH  028%=      5-min Rain = 0
KEN1 200243Z 17010KT 31/10 A2991 RMK A01 T03060102  RH  028%=      5-min Rain = 0
KEN1 200244Z 18012KT 31/10 A2991 RMK A01 T03060102  RH  028%=      5-min Rain = 0
KEN1 200245Z 18010KT 31/10 A2991 RMK A01 T03060102  RH  028%=      5-min Rain = 0
KEN1 200246Z 18010KT 31/10 A2991 RMK A01 T03060102  RH  028%=      5-min Rain = 0
KEN1 200247Z 18009KT 31/10 A2991 RMK A01 T03050102  RH  028%=      5-min Rain = 0
KEN1 200248Z 17009KT 30/10 A2991 RMK A01 T03040101  RH  028%=      5-min Rain = 0
KEN1 200249Z 17009KT 30/10 A299 RMK A01 T03040101  RH  029%=      5-min Rain = 0
KEN1 200250Z 17010KT 30/10 A299 RMK A01 T03030101  RH  029%=      5-min Rain = 0
KEN1 200251Z 16010KT 30/10 A299 RMK A01 T03040101  RH  028%=      5-min Rain = 0
KEN1 200252Z 17011KT 30/10 A299 RMK A01 T03040100  RH  028%=      5-min Rain = 0
KEN1 200253Z 17011KT 31/10 A299 RMK A01 T03050099  RH  028%=      5-min Rain = 0
KEN1 200254Z 17011KT 31/10 A299 RMK A01 T03060100  RH  028%=      5-min Rain = 0
KEN1 200255Z 17010KT 31/10 A299 RMK A01 T03060100  RH  028%=      5-min Rain = 0
KEN1 200256Z 17010KT 31/10 A299 RMK A01 T03060099  RH  028%=      5-min Rain = 0
KEN1 200257Z 17011KT 31/10 A299 RMK A01 T03060100  RH  028%=      5-min Rain = 0
KEN1 200258Z 17010KT 31/10 A299 RMK A01 T03060100  RH  028%=      5-min Rain = 0
KEN1 200259Z 17010KT 31/10 A2991 RMK A01 T03060101  RH  028%=      5-min Rain = 0
KEN1 200300Z 17010KT 31/10 A2991 RMK A01 T03060101  RH  028%=      5-min Rain = 0
KEN1 200301Z 17010KT 31/10 A2991 RMK A01 T03060102  RH  028%=      5-min Rain = 0
KEN1 200302Z 17011KT 31/10 A2991 RMK A01 T03050102  RH  029%=      5-min Rain = 0
KEN1 200303Z 17011KT 31/10 A2991 RMK A01 T03050104  RH  029%=      5-min Rain = 0
KEN1 200304Z 17010KT 31/10 A2991 RMK A01 T03050104  RH  029%=      5-min Rain = 0
KEN1 200305Z 17013KT 31/11 A2991 RMK A01 T03050105  RH  029%=      5-min Rain = 0
KEN1 200306Z 17012KT 31/11 A2991 RMK A01 T03050106  RH  029%=      5-min Rain = 0
KEN1 200307Z 17011KT 31/11 A2991 RMK A01 T03050106  RH  029%=      5-min Rain = 0
KEN1 200308Z 17011KT 31/11 A2991 RMK A01 T03050107  RH  029%=      5-min Rain = 0
KEN1 200309Z 17010KT 30/11 A2991 RMK A01 T03040107  RH  030%=      5-min Rain = 0
KEN1 200310Z 17011KT 30/11 A2991 RMK A01 T03030107  RH  030%=      5-min Rain = 0
KEN1 200311Z 17009KT 30/11 A2991 RMK A01 T03030107  RH  030%=      5-min Rain = 0
KEN1 200312Z 17009KT 30/11 A2991 RMK A01 T03020107  RH  030%=      5-min Rain = 0
KEN1 200313Z 17010KT 30/11 A2991 RMK A01 T03020107  RH  030%=      5-min Rain = 0
KEN1 200314Z 17010KT 30/11 A2991 RMK A01 T03010107  RH  030%=      5-min Rain = 0
KEN1 200315Z 17010KT 30/11 A2991 RMK A01 T03010107  RH  030%=      5-min Rain = 0
KEN1 200316Z 17011KT 30/11 A2991 RMK A01 T03010107  RH  030%=      5-min Rain = 0
KEN1 200317Z 17010KT 30/11 A2991 RMK A01 T03010107  RH  030%=      5-min Rain = 0
KEN1 200318Z 17010KT 30/11 A2991 RMK A01 T03000106  RH  030%=      5-min Rain = 0
KEN1 200319Z 17010KT 30/11 A2991 RMK A01 T03000106  RH  030%=      5-min Rain = 0
KEN1 200320Z 17010KT 30/11 A2991 RMK A01 T02990106  RH  030%=      5-min Rain = 0
KEN1 200321Z 17010KT 30/11 A2991 RMK A01 T02990106  RH  030%=      5-min Rain = 0
KEN1 200322Z 17010KT 30/11 A2991 RMK A01 T02980105  RH  030%=      5-min Rain = 0
KEN1 200323Z 17010KT 30/11 A2991 RMK A01 T02980105  RH  030%=      5-min Rain = 0
KEN1 200324Z 17010KT 30/10 A2991 RMK A01 T02970104  RH  030%=      5-min Rain = 0
KEN1 200325Z 17010KT 30/10 A2991 RMK A01 T02970104  RH  030%=      5-min Rain = 0
KEN1 200326Z 17010KT 30/10 A2991 RMK A01 T02970104  RH  030%=      5-min Rain = 0
KEN1 200327Z 17009KT 30/10 A2991 RMK A01 T02960104  RH  030%=      5-min Rain = 0
KEN1 200328Z 17010KT 30/10 A2991 RMK A01 T02960103  RH  030%=      5-min Rain = 0
KEN1 200329Z 17010KT 30/10 A2991 RMK A01 T02960103  RH  030%=      5-min Rain = 0
KEN1 200330Z 17009KT 30/10 A2991 RMK A01 T02960103  RH  030%=      5-min Rain = 0
KEN1 200331Z 17010KT 30/10 A2991 RMK A01 T02960103  RH  030%=      5-min Rain = 0
KEN1 200332Z 17010KT 30/10 A2991 RMK A01 T02960103  RH  030%=      5-min Rain = 0
KEN1 200333Z 18009KT 30/10 A2991 RMK A01 T02960103  RH  030%=      5-min Rain = 0
KEN1 200334Z 17009KT 30/10 A2991 RMK A01 T02950103  RH  030%=      5-min Rain = 0
KEN1 200335Z 17009KT 29/10 A2991 RMK A01 T02940103  RH  031%=      5-min Rain = 0
KEN1 200336Z 17009KT 29/10 A2991 RMK A01 T02930103  RH  031%=      5-min Rain = 0
KEN1 200337Z 17008KT 29/10 A2991 RMK A01 T02920103  RH  031%=      5-min Rain = 0
KEN1 200338Z 17008KT 29/10 A2991 RMK A01 T02920103  RH  031%=      5-min Rain = 0
KEN1 200339Z 18008KT 29/10 A2991 RMK A01 T02910103  RH  031%=      5-min Rain = 0
KEN1 200340Z 17008KT 29/10 A2992 RMK A01 T02900103  RH  031%=      5-min Rain = 0
KEN1 200341Z 17008KT 29/10 A2992 RMK A01 T02900103  RH  031%=      5-min Rain = 0
KEN1 200342Z 17008KT 29/10 A2992 RMK A01 T02890103  RH  031%=      5-min Rain = 0
KEN1 200343Z 18008KT 29/10 A2992 RMK A01 T02880103  RH  032%=      5-min Rain = 0
KEN1 200344Z 18008KT 29/10 A2992 RMK A01 T02870103  RH  032%=      5-min Rain = 0
KEN1 200345Z 17009KT 29/10 A2992 RMK A01 T02860103  RH  032%=      5-min Rain = 0
KEN1 200346Z 17009KT 29/10 A2992 RMK A01 T02860103  RH  032%=      5-min Rain = 0
KEN1 200347Z 17009KT 29/10 A2992 RMK A01 T02860103  RH  032%=      5-min Rain = 0
KEN1 200348Z 17009KT 29/10 A2992 RMK A01 T02860103  RH  032%=      5-min Rain = 0
KEN1 200349Z 18009KT 29/10 A2992 RMK A01 T02860103  RH  032%=      5-min Rain = 0
KEN1 200350Z 18008KT 29/10 A2992 RMK A01 T02860103  RH  032%=      5-min Rain = 0
KEN1 200351Z 17009KT 29/10 A2992 RMK A01 T02860103  RH  032%=      5-min Rain = 0
KEN1 200352Z 17009KT 29/10 A2992 RMK A01 T02860103  RH  032%=      5-min Rain = 0
KEN1 200353Z 17009KT 29/10 A2992 RMK A01 T02860103  RH  032%=      5-min Rain = 0
KEN1 200354Z 17009KT 29/10 A2992 RMK A01 T02870104  RH  032%=      5-min Rain = 0
KEN1 200355Z 17009KT 29/10 A2992 RMK A01 T02860103  RH  032%=      5-min Rain = 0
KEN1 200356Z 17010KT 29/10 A2992 RMK A01 T02870104  RH  032%=      5-min Rain = 0
KEN1 200357Z 17010KT 29/10 A2992 RMK A01 T02870104  RH  032%=      5-min Rain = 0
KEN1 200358Z 17010KT 29/10 A2992 RMK A01 T02890104  RH  032%=      5-min Rain = 0
KEN1 200359Z 17009KT 29/11 A2992 RMK A01 T02900105  RH  032%=      5-min Rain = 0
KEN1 200400Z 17010KT 29/11 A2992 RMK A01 T02900105  RH  032%=      5-min Rain = 0
KEN1 200401Z 18009KT 29/11 A2992 RMK A01 T02900105  RH  032%=      5-min Rain = 0
KEN1 200402Z 17009KT 29/11 A2992 RMK A01 T02890105  RH  032%=      5-min Rain = 0
KEN1 200403Z 18009KT 29/11 A2992 RMK A01 T02880105  RH  032%=      5-min Rain = 0
KEN1 200404Z 17010KT 29/11 A2992 RMK A01 T02880106  RH  032%=      5-min Rain = 0
KEN1 200405Z 17009KT 29/11 A2992 RMK A01 T02870105  RH  032%=      5-min Rain = 0
KEN1 200406Z 17009KT 29/11 A2992 RMK A01 T02870105  RH  032%=      5-min Rain = 0
KEN1 200407Z 18009KT 29/11 A2992 RMK A01 T02860105  RH  032%=      5-min Rain = 0
KEN1 200408Z 17008KT 29/11 A2992 RMK A01 T02860106  RH  033%=      5-min Rain = 0
KEN1 200409Z 17008KT 28/11 A2992 RMK A01 T02840105  RH  033%=      5-min Rain = 0
KEN1 200410Z 17008KT 28/11 A2992 RMK A01 T02830105  RH  033%=      5-min Rain = 0
KEN1 200411Z 17009KT 28/11 A2992 RMK A01 T02820105  RH  033%=      5-min Rain = 0
KEN1 200412Z 17009KT 28/11 A2993 RMK A01 T02810105  RH  033%=      5-min Rain = 0
KEN1 200413Z 17009KT 28/11 A2993 RMK A01 T02810105  RH  033%=      5-min Rain = 0
KEN1 200414Z 17008KT 28/11 A2993 RMK A01 T02810105  RH  033%=      5-min Rain = 0
KEN1 200415Z 17009KT 28/11 A2993 RMK A01 T02810105  RH  034%=      5-min Rain = 0
KEN1 200416Z 17009KT 28/11 A2993 RMK A01 T02800105  RH  034%=      5-min Rain = 0
KEN1 200417Z 17009KT 28/11 A2993 RMK A01 T02810106  RH  034%=      5-min Rain = 0
KEN1 200418Z 17010KT 28/11 A2993 RMK A01 T02810106  RH  033%=      5-min Rain = 0
KEN1 200419Z 17010KT 28/11 A2993 RMK A01 T02830106  RH  033%=      5-min Rain = 0
KEN1 200420Z 17010KT 29/11 A2993 RMK A01 T02850106  RH  033%=      5-min Rain = 0
KEN1 200421Z 17010KT 29/11 A2993 RMK A01 T02860106  RH  033%=      5-min Rain = 0
KEN1 200422Z 16011KT 29/11 A2992 RMK A01 T02870106  RH  033%=      5-min Rain = 0
KEN1 200423Z 17011KT 29/11 A2992 RMK A01 T02880107  RH  032%=      5-min Rain = 0
KEN1 200424Z 16010KT 29/11 A2992 RMK A01 T02880106  RH  032%=      5-min Rain = 0
KEN1 200425Z 16011KT 29/11 A2992 RMK A01 T02890107  RH  032%=      5-min Rain = 0
KEN1 200426Z 17010KT 29/11 A2993 RMK A01 T02900107  RH  032%=      5-min Rain = 0
KEN1 200427Z 17011KT 29/11 A2993 RMK A01 T02910107  RH  032%=      5-min Rain = 0
KEN1 200428Z 16011KT 29/11 A2993 RMK A01 T02920107  RH  032%=      5-min Rain = 0
KEN1 200429Z 16011KT 29/11 A2993 RMK A01 T02920107  RH  032%=      5-min Rain = 0
KEN1 200430Z 16012KT 29/11 A2993 RMK A01 T02920107  RH  032%=      5-min Rain = 0
KEN1 200431Z 16012KT 29/11 A2993 RMK A01 T02930107  RH  032%=      5-min Rain = 0
KEN1 200432Z 16012KT 29/11 A2993 RMK A01 T02940108  RH  032%=      5-min Rain = 0
KEN1 200433Z 16011KT 30/11 A2993 RMK A01 T02950108  RH  031%=      5-min Rain = 0
KEN1 200434Z 16012KT 30/11 A2993 RMK A01 T02950108  RH  031%=      5-min Rain = 0
KEN1 200435Z 16011KT 30/11 A2993 RMK A01 T02950109  RH  032%=      5-min Rain = 0
KEN1 200436Z 16012KT 30/11 A2993 RMK A01 T02950109  RH  032%=      5-min Rain = 0
KEN1 200437Z 16013KT 30/11 A2993 RMK A01 T02950110  RH  032%=      5-min Rain = 0
KEN1 200438Z 17012KT 30/11 A2993 RMK A01 T02950109  RH  032%=      5-min Rain = 0
KEN1 200439Z 16013KT 29/11 A2993 RMK A01 T02940110  RH  032%=      5-min Rain = 0
KEN1 200440Z 16012KT 29/11 A2993 RMK A01 T02940110  RH  032%=      5-min Rain = 0
KEN1 200441Z 16012KT 29/11 A2993 RMK A01 T02940110  RH  032%=      5-min Rain = 0
KEN1 200442Z 16012KT 29/11 A2993 RMK A01 T02940111  RH  032%=      5-min Rain = 0
KEN1 200443Z 16013KT 29/11 A2993 RMK A01 T02940111  RH  032%=      5-min Rain = 0
KEN1 200444Z 16012KT 29/11 A2993 RMK A01 T02940112  RH  032%=      5-min Rain = 0
KEN1 200445Z 16012KT 29/11 A2993 RMK A01 T02930112  RH  032%=      5-min Rain = 0
KEN1 200446Z 16012KT 29/11 A2992 RMK A01 T02930112  RH  033%=      5-min Rain = 0
KEN1 200447Z 16011KT 29/11 A2993 RMK A01 T02930112  RH  033%=      5-min Rain = 0
KEN1 200448Z 16011KT 29/11 A2993 RMK A01 T02920112  RH  033%=      5-min Rain = 0
KEN1 200449Z 16011KT 29/11 A2993 RMK A01 T02910113  RH  033%=      5-min Rain = 0
KEN1 200450Z 16012KT 29/11 A2993 RMK A01 T02900112  RH  033%=      5-min Rain = 0
KEN1 200451Z 16012KT 29/11 A2993 RMK A01 T02880113  RH  034%=      5-min Rain = 0
KEN1 200452Z 15014KT 29/11 A2993 RMK A01 T02880113  RH  034%=      5-min Rain = 0
KEN1 200453Z 15013KT 29/11 A2993 RMK A01 T02890114  RH  034%=      5-min Rain = 0
KEN1 200454Z 15013KT 29/11 A2993 RMK A01 T02890114  RH  034%=      5-min Rain = 0
KEN1 200455Z 15012KT 29/12 A2993 RMK A01 T02900115  RH  034%=      5-min Rain = 0
KEN1 200456Z 15011KT 29/12 A2993 RMK A01 T02900115  RH  034%=      5-min Rain = 0
KEN1 200457Z 15010KT 29/12 A2993 RMK A01 T02900115  RH  034%=      5-min Rain = 0
KEN1 200458Z 15010KT 29/12 A2993 RMK A01 T02880115  RH  034%=      5-min Rain = 0
KEN1 200459Z 15010KT 29/12 A2993 RMK A01 T02860115  RH  034%=      5-min Rain = 0

Page generated in 0.1221 seconds.